Observation data for Vigo Park on 07/10/2018      Previous  Date  Next       Current Mesonet Observations  Soil Data  Daily Summary Page  Observations in Plain Language
KVP1 100500Z 11007KT 22/13 A3026 RMK A01 T02210132  RH  057%=      5-min Rain = 0
KVP1 100501Z 11007KT 22/13 A3026 RMK A01 T02210132  RH  057%=      5-min Rain = 0
KVP1 100502Z 11007KT 22/13 A3026 RMK A01 T02210132  RH  057%=      5-min Rain = 0
KVP1 100503Z 11007KT 22/13 A3026 RMK A01 T02200132  RH  057%=      5-min Rain = 0
KVP1 100504Z 11007KT 22/13 A3026 RMK A01 T02210133  RH  057%=      5-min Rain = 0
KVP1 100505Z 11007KT 22/13 A3026 RMK A01 T02200133  RH  058%=      5-min Rain = 0
KVP1 100506Z 11007KT 22/13 A3026 RMK A01 T02200133  RH  058%=      5-min Rain = 0
KVP1 100507Z 11007KT 22/13 A3026 RMK A01 T02200133  RH  058%=      5-min Rain = 0
KVP1 100508Z 11007KT 22/13 A3026 RMK A01 T02200133  RH  058%=      5-min Rain = 0
KVP1 100509Z 11007KT 22/13 A3026 RMK A01 T02190133  RH  058%=      5-min Rain = 0
KVP1 100510Z 11007KT 22/13 A3026 RMK A01 T02190133  RH  058%=      5-min Rain = 0
KVP1 100511Z 11007KT 22/13 A3026 RMK A01 T02190133  RH  058%=      5-min Rain = 0
KVP1 100512Z 11006KT 22/13 A3026 RMK A01 T02190133  RH  058%=      5-min Rain = 0
KVP1 100513Z 11006KT 22/13 A3026 RMK A01 T02190133  RH  058%=      5-min Rain = 0
KVP1 100514Z 11006KT 22/13 A3026 RMK A01 T02190133  RH  058%=      5-min Rain = 0
KVP1 100515Z 11007KT 22/13 A3026 RMK A01 T02180133  RH  058%=      5-min Rain = 0
KVP1 100516Z 11007KT 22/13 A3026 RMK A01 T02170133  RH  059%=      5-min Rain = 0
KVP1 100517Z 12006KT 22/13 A3026 RMK A01 T02170133  RH  059%=      5-min Rain = 0
KVP1 100518Z 12006KT 22/13 A3026 RMK A01 T02160133  RH  059%=      5-min Rain = 0
KVP1 100519Z 12007KT 22/13 A3026 RMK A01 T02150133  RH  059%=      5-min Rain = 0
KVP1 100520Z 12007KT 21/13 A3026 RMK A01 T02140133  RH  060%=      5-min Rain = 0
KVP1 100521Z 12007KT 21/13 A3026 RMK A01 T02140133  RH  060%=      5-min Rain = 0
KVP1 100522Z 12006KT 21/13 A3026 RMK A01 T02140133  RH  060%=      5-min Rain = 0
KVP1 100523Z 13006KT 21/13 A3026 RMK A01 T02130133  RH  060%=      5-min Rain = 0
KVP1 100524Z 15007KT 21/13 A3027 RMK A01 T02120133  RH  061%=      5-min Rain = 0
KVP1 100525Z 17010KT 21/13 A3027 RMK A01 T02090134  RH  062%=      5-min Rain = 0
KVP1 100526Z 17010KT 21/14 A3027 RMK A01 T02060136  RH  064%=      5-min Rain = 0
KVP1 100527Z 16009KT 21/14 A3027 RMK A01 T02050136  RH  064%=      5-min Rain = 0
KVP1 100528Z 16010KT 21/14 A3027 RMK A01 T02060137  RH  064%=      5-min Rain = 0
KVP1 100529Z 16010KT 21/14 A3027 RMK A01 T02120139  RH  063%=      5-min Rain = 0
KVP1 100530Z 16009KT 22/14 A3027 RMK A01 T02160139  RH  062%=      5-min Rain = 0
KVP1 100531Z 16009KT 22/14 A3027 RMK A01 T02180139  RH  061%=      5-min Rain = 0
KVP1 100532Z 15009KT 22/14 A3027 RMK A01 T02190139  RH  060%=      5-min Rain = 0
KVP1 100533Z 15009KT 22/14 A3027 RMK A01 T02200139  RH  060%=      5-min Rain = 0
KVP1 100534Z 16009KT 22/14 A3027 RMK A01 T02210139  RH  060%=      5-min Rain = 0
KVP1 100535Z 16008KT 22/14 A3027 RMK A01 T02220139  RH  060%=      5-min Rain = 0
KVP1 100536Z 16008KT 22/14 A3027 RMK A01 T02220140  RH  060%=      5-min Rain = 0
KVP1 100537Z 16008KT 22/14 A3027 RMK A01 T02220140  RH  060%=      5-min Rain = 0
KVP1 100538Z 17007KT 22/14 A3027 RMK A01 T02210140  RH  060%=      5-min Rain = 0
KVP1 100539Z 17006KT 22/14 A3027 RMK A01 T02210140  RH  060%=      5-min Rain = 0
KVP1 100540Z 17006KT 22/14 A3027 RMK A01 T02200140  RH  060%=      5-min Rain = 0
KVP1 100541Z 17005KT 22/14 A3027 RMK A01 T02180139  RH  061%=      5-min Rain = 0
KVP1 100542Z 16005KT 22/14 A3027 RMK A01 T02160139  RH  061%=      5-min Rain = 0
KVP1 100543Z 15004KT 21/14 A3027 RMK A01 T02140138  RH  062%=      5-min Rain = 0
KVP1 100544Z 15005KT 21/14 A3027 RMK A01 T02120137  RH  062%=      5-min Rain = 0
KVP1 100545Z 16006KT 21/14 A3027 RMK A01 T02110138  RH  063%=      5-min Rain = 0
KVP1 100546Z 16005KT 21/14 A3027 RMK A01 T02100139  RH  063%=      5-min Rain = 0
KVP1 100547Z 16006KT 21/14 A3027 RMK A01 T02100139  RH  064%=      5-min Rain = 0
KVP1 100548Z 16005KT 21/14 A3027 RMK A01 T02100139  RH  064%=      5-min Rain = 0
KVP1 100549Z 16005KT 21/14 A3027 RMK A01 T02090139  RH  064%=      5-min Rain = 0
KVP1 100550Z 16005KT 21/14 A3027 RMK A01 T02090139  RH  064%=      5-min Rain = 0
KVP1 100551Z 16005KT 21/14 A3027 RMK A01 T02080139  RH  064%=      5-min Rain = 0
KVP1 100552Z 16005KT 21/14 A3027 RMK A01 T02080139  RH  064%=      5-min Rain = 0
KVP1 100553Z 16005KT 21/14 A3027 RMK A01 T02070138  RH  065%=      5-min Rain = 0
KVP1 100554Z 16006KT 21/14 A3027 RMK A01 T02070139  RH  065%=      5-min Rain = 0
KVP1 100555Z 16006KT 21/14 A3027 RMK A01 T02070139  RH  065%=      5-min Rain = 0
KVP1 100556Z 17006KT 21/14 A3027 RMK A01 T02070138  RH  065%=      5-min Rain = 0
KVP1 100557Z 17006KT 21/14 A3027 RMK A01 T02070138  RH  065%=      5-min Rain = 0
KVP1 100558Z 17006KT 21/14 A3026 RMK A01 T02060138  RH  065%=      5-min Rain = 0
KVP1 100559Z 17006KT 21/14 A3026 RMK A01 T02050137  RH  065%=      5-min Rain = 0
KVP1 100600Z 17007KT 20/14 A3026 RMK A01 T02040137  RH  065%=      5-min Rain = 0
KVP1 100601Z 17006KT 20/14 A3026 RMK A01 T02040138  RH  066%=      5-min Rain = 0
KVP1 100602Z 17006KT 20/14 A3026 RMK A01 T02030138  RH  066%=      5-min Rain = 0
KVP1 100603Z 17007KT 20/14 A3026 RMK A01 T02020138  RH  067%=      5-min Rain = 0
KVP1 100604Z 17007KT 20/14 A3026 RMK A01 T02010138  RH  067%=      5-min Rain = 0
KVP1 100605Z 17006KT 20/14 A3026 RMK A01 T02010139  RH  068%=      5-min Rain = 0
KVP1 100606Z 17006KT 20/14 A3026 RMK A01 T02000140  RH  068%=      5-min Rain = 0
KVP1 100607Z 17006KT 20/14 A3026 RMK A01 T02000140  RH  068%=      5-min Rain = 0
KVP1 100608Z 18006KT 20/14 A3026 RMK A01 T02000140  RH  068%=      5-min Rain = 0
KVP1 100609Z 17005KT 20/14 A3026 RMK A01 T02010140  RH  068%=      5-min Rain = 0
KVP1 100610Z 18005KT 20/14 A3026 RMK A01 T02010140  RH  068%=      5-min Rain = 0
KVP1 100611Z 18006KT 20/14 A3026 RMK A01 T02000139  RH  068%=      5-min Rain = 0
KVP1 100612Z 18006KT 20/14 A3026 RMK A01 T02000139  RH  068%=      5-min Rain = 0
KVP1 100613Z 18006KT 20/14 A3026 RMK A01 T02000139  RH  068%=      5-min Rain = 0
KVP1 100614Z 18007KT 20/14 A3026 RMK A01 T02000138  RH  068%=      5-min Rain = 0
KVP1 100615Z 18007KT 20/14 A3026 RMK A01 T02000138  RH  068%=      5-min Rain = 0
KVP1 100616Z 18008KT 20/14 A3026 RMK A01 T02000138  RH  068%=      5-min Rain = 0
KVP1 100617Z 19007KT 20/14 A3026 RMK A01 T01990139  RH  068%=      5-min Rain = 0
KVP1 100618Z 19007KT 20/14 A3026 RMK A01 T01990139  RH  068%=      5-min Rain = 0
KVP1 100619Z 19008KT 20/14 A3026 RMK A01 T01990140  RH  069%=      5-min Rain = 0
KVP1 100620Z 19008KT 20/14 A3026 RMK A01 T01980140  RH  069%=      5-min Rain = 0
KVP1 100621Z 18008KT 20/14 A3026 RMK A01 T01980141  RH  070%=      5-min Rain = 0
KVP1 100622Z 18008KT 20/14 A3026 RMK A01 T01980142  RH  070%=      5-min Rain = 0
KVP1 100623Z 18007KT 20/14 A3026 RMK A01 T01980142  RH  070%=      5-min Rain = 0
KVP1 100624Z 18007KT 20/14 A3026 RMK A01 T01980143  RH  070%=      5-min Rain = 0
KVP1 100625Z 19007KT 20/14 A3026 RMK A01 T01980143  RH  070%=      5-min Rain = 0
KVP1 100626Z 19007KT 20/14 A3026 RMK A01 T01970143  RH  071%=      5-min Rain = 0
KVP1 100627Z 19007KT 20/14 A3026 RMK A01 T01970143  RH  071%=      5-min Rain = 0
KVP1 100628Z 19007KT 20/14 A3026 RMK A01 T01970143  RH  071%=      5-min Rain = 0
KVP1 100629Z 19007KT 20/14 A3026 RMK A01 T01970144  RH  071%=      5-min Rain = 0
KVP1 100630Z 19007KT 20/14 A3026 RMK A01 T01970144  RH  071%=      5-min Rain = 0
KVP1 100631Z 19007KT 20/15 A3026 RMK A01 T01970145  RH  071%=      5-min Rain = 0
KVP1 100632Z 19007KT 20/15 A3026 RMK A01 T01980146  RH  072%=      5-min Rain = 0
KVP1 100633Z 19006KT 20/15 A3026 RMK A01 T01990147  RH  072%=      5-min Rain = 0
KVP1 100634Z 19006KT 20/15 A3026 RMK A01 T01990147  RH  072%=      5-min Rain = 0
KVP1 100635Z 20006KT 20/15 A3026 RMK A01 T01990147  RH  072%=      5-min Rain = 0
KVP1 100636Z 20006KT 20/15 A3026 RMK A01 T01990147  RH  072%=      5-min Rain = 0
KVP1 100637Z 20006KT 20/15 A3026 RMK A01 T01990147  RH  072%=      5-min Rain = 0
KVP1 100638Z 20006KT 20/15 A3026 RMK A01 T01980147  RH  072%=      5-min Rain = 0
KVP1 100639Z 20006KT 20/15 A3026 RMK A01 T01970147  RH  073%=      5-min Rain = 0
KVP1 100640Z 20006KT 20/15 A3026 RMK A01 T01970147  RH  073%=      5-min Rain = 0
KVP1 100641Z 20005KT 20/15 A3026 RMK A01 T01960147  RH  073%=      5-min Rain = 0
KVP1 100642Z 20005KT 20/15 A3026 RMK A01 T01960147  RH  073%=      5-min Rain = 0
KVP1 100643Z 20006KT 20/15 A3026 RMK A01 T01950147  RH  073%=      5-min Rain = 0
KVP1 100644Z 20006KT 20/15 A3026 RMK A01 T01950146  RH  073%=      5-min Rain = 0
KVP1 100645Z 19006KT 20/15 A3026 RMK A01 T01950146  RH  073%=      5-min Rain = 0
KVP1 100646Z 19006KT 19/15 A3026 RMK A01 T01940145  RH  073%=      5-min Rain = 0
KVP1 100647Z 19006KT 19/14 A3026 RMK A01 T01930144  RH  073%=      5-min Rain = 0
KVP1 100648Z 19006KT 19/14 A3026 RMK A01 T01920143  RH  073%=      5-min Rain = 0
KVP1 100649Z 19006KT 19/14 A3026 RMK A01 T01910143  RH  074%=      5-min Rain = 0
KVP1 100650Z 19006KT 19/14 A3026 RMK A01 T01900143  RH  074%=      5-min Rain = 0
KVP1 100651Z 19006KT 19/14 A3026 RMK A01 T01890143  RH  075%=      5-min Rain = 0
KVP1 100652Z 19006KT 19/14 A3026 RMK A01 T01880142  RH  075%=      5-min Rain = 0
KVP1 100653Z 19006KT 19/14 A3026 RMK A01 T01870141  RH  074%=      5-min Rain = 0
KVP1 100654Z 19005KT 19/14 A3026 RMK A01 T01860140  RH  074%=      5-min Rain = 0
KVP1 100655Z 18006KT 19/14 A3026 RMK A01 T01850140  RH  075%=      5-min Rain = 0
KVP1 100656Z 18006KT 19/14 A3026 RMK A01 T01850141  RH  075%=      5-min Rain = 0
KVP1 100657Z 18006KT 19/14 A3026 RMK A01 T01850142  RH  076%=      5-min Rain = 0
KVP1 100658Z 18006KT 19/14 A3026 RMK A01 T01850142  RH  076%=      5-min Rain = 0
KVP1 100659Z 18007KT 19/14 A3026 RMK A01 T01850142  RH  076%=      5-min Rain = 0
KVP1 100700Z 19007KT 19/14 A3026 RMK A01 T01850142  RH  076%=      5-min Rain = 0
KVP1 100701Z 19007KT 19/14 A3026 RMK A01 T01850141  RH  075%=      5-min Rain = 0
KVP1 100702Z 19007KT 19/14 A3026 RMK A01 T01850141  RH  075%=      5-min Rain = 0
KVP1 100703Z 19007KT 19/14 A3026 RMK A01 T01850141  RH  075%=      5-min Rain = 0
KVP1 100704Z 19006KT 18/14 A3026 RMK A01 T01840140  RH  075%=      5-min Rain = 0
KVP1 100705Z 20006KT 18/14 A3026 RMK A01 T01840140  RH  076%=      5-min Rain = 0
KVP1 100706Z 20007KT 18/14 A3026 RMK A01 T01840141  RH  076%=      5-min Rain = 0
KVP1 100707Z 20006KT 18/14 A3026 RMK A01 T01840142  RH  076%=      5-min Rain = 0
KVP1 100708Z 20007KT 18/14 A3026 RMK A01 T01840142  RH  076%=      5-min Rain = 0
KVP1 100709Z 20007KT 18/14 A3026 RMK A01 T01840142  RH  076%=      5-min Rain = 0
KVP1 100710Z 20007KT 18/14 A3026 RMK A01 T01840142  RH  076%=      5-min Rain = 0
KVP1 100711Z 20006KT 19/14 A3026 RMK A01 T01850142  RH  076%=      5-min Rain = 0
KVP1 100712Z 21006KT 19/14 A3026 RMK A01 T01850142  RH  076%=      5-min Rain = 0
KVP1 100713Z 21006KT 19/14 A3026 RMK A01 T01850142  RH  076%=      5-min Rain = 0
KVP1 100714Z 21006KT 19/14 A3026 RMK A01 T01850142  RH  076%=      5-min Rain = 0
KVP1 100715Z 21006KT 19/14 A3026 RMK A01 T01850143  RH  077%=      5-min Rain = 0
KVP1 100716Z 21006KT 18/14 A3026 RMK A01 T01840143  RH  077%=      5-min Rain = 0
KVP1 100717Z 21006KT 18/14 A3026 RMK A01 T01840144  RH  077%=      5-min Rain = 0
KVP1 100718Z 21006KT 18/14 A3026 RMK A01 T01840144  RH  078%=      5-min Rain = 0
KVP1 100719Z 21006KT 18/14 A3026 RMK A01 T01840144  RH  078%=      5-min Rain = 0
KVP1 100720Z 22006KT 18/15 A3026 RMK A01 T01830145  RH  078%=      5-min Rain = 0
KVP1 100721Z 22006KT 18/15 A3026 RMK A01 T01830145  RH  078%=      5-min Rain = 0
KVP1 100722Z 22006KT 18/14 A3026 RMK A01 T01830144  RH  078%=      5-min Rain = 0
KVP1 100723Z 22006KT 18/15 A3026 RMK A01 T01820145  RH  078%=      5-min Rain = 0
KVP1 100724Z 22007KT 18/14 A3026 RMK A01 T01820144  RH  079%=      5-min Rain = 0
KVP1 100725Z 23007KT 18/14 A3026 RMK A01 T01810144  RH  079%=      5-min Rain = 0
KVP1 100726Z 23006KT 18/14 A3026 RMK A01 T01810144  RH  079%=      5-min Rain = 0
KVP1 100727Z 22006KT 18/14 A3026 RMK A01 T01800144  RH  079%=      5-min Rain = 0
KVP1 100728Z 22006KT 18/14 A3026 RMK A01 T01800144  RH  079%=      5-min Rain = 0
KVP1 100729Z 23007KT 18/14 A3026 RMK A01 T01800144  RH  080%=      5-min Rain = 0
KVP1 100730Z 23007KT 18/14 A3026 RMK A01 T01800144  RH  080%=      5-min Rain = 0
KVP1 100731Z 23007KT 18/14 A3026 RMK A01 T01800144  RH  080%=      5-min Rain = 0
KVP1 100732Z 23007KT 18/14 A3026 RMK A01 T01800144  RH  080%=      5-min Rain = 0
KVP1 100733Z 23007KT 18/14 A3026 RMK A01 T01800144  RH  080%=      5-min Rain = 0
KVP1 100734Z 23007KT 18/14 A3026 RMK A01 T01800144  RH  080%=      5-min Rain = 0
KVP1 100735Z 22007KT 18/14 A3026 RMK A01 T01800144  RH  080%=      5-min Rain = 0
KVP1 100736Z 22007KT 18/15 A3026 RMK A01 T01800145  RH  080%=      5-min Rain = 0
KVP1 100737Z 22006KT 18/15 A3026 RMK A01 T01800145  RH  080%=      5-min Rain = 0
KVP1 100738Z 22006KT 18/15 A3026 RMK A01 T01800145  RH  080%=      5-min Rain = 0
KVP1 100739Z 22006KT 18/15 A3026 RMK A01 T01800145  RH  080%=      5-min Rain = 0
KVP1 100740Z 22006KT 18/15 A3026 RMK A01 T01800145  RH  080%=      5-min Rain = 0
KVP1 100741Z 22006KT 18/15 A3026 RMK A01 T01800145  RH  080%=      5-min Rain = 0
KVP1 100742Z 22006KT 18/15 A3026 RMK A01 T01800145  RH  080%=      5-min Rain = 0
KVP1 100743Z 21006KT 18/15 A3026 RMK A01 T01790145  RH  080%=      5-min Rain = 0
KVP1 100744Z 21006KT 18/15 A3027 RMK A01 T01790145  RH  080%=      5-min Rain = 0
KVP1 100745Z 21006KT 18/15 A3027 RMK A01 T01790145  RH  080%=      5-min Rain = 0
KVP1 100746Z 21006KT 18/14 A3027 RMK A01 T01780144  RH  080%=      5-min Rain = 0
KVP1 100747Z 21006KT 18/14 A3027 RMK A01 T01780144  RH  080%=      5-min Rain = 0
KVP1 100748Z 21006KT 18/14 A3027 RMK A01 T01780144  RH  081%=      5-min Rain = 0
KVP1 100749Z 21006KT 18/14 A3027 RMK A01 T01770143  RH  081%=      5-min Rain = 0
KVP1 100750Z 21006KT 18/14 A3027 RMK A01 T01770143  RH  081%=      5-min Rain = 0
KVP1 100751Z 21006KT 18/14 A3027 RMK A01 T01770143  RH  081%=      5-min Rain = 0
KVP1 100752Z 21005KT 18/14 A3027 RMK A01 T01770144  RH  081%=      5-min Rain = 0
KVP1 100753Z 21005KT 18/14 A3027 RMK A01 T01770143  RH  081%=      5-min Rain = 0
KVP1 100754Z 21005KT 18/14 A3027 RMK A01 T01770143  RH  081%=      5-min Rain = 0
KVP1 100755Z 21006KT 18/14 A3027 RMK A01 T01770143  RH  081%=      5-min Rain = 0
KVP1 100756Z 21006KT 18/14 A3027 RMK A01 T01770143  RH  080%=      5-min Rain = 0
KVP1 100757Z 21006KT 18/14 A3027 RMK A01 T01770142  RH  080%=      5-min Rain = 0
KVP1 100758Z 21006KT 18/14 A3027 RMK A01 T01770142  RH  080%=      5-min Rain = 0
KVP1 100759Z 21006KT 18/14 A3027 RMK A01 T01770142  RH  080%=      5-min Rain = 0
KVP1 100800Z 21006KT 18/14 A3027 RMK A01 T01770141  RH  080%=      5-min Rain = 0
KVP1 100801Z 21006KT 18/14 A3027 RMK A01 T01770142  RH  080%=      5-min Rain = 0
KVP1 100802Z 21006KT 18/14 A3027 RMK A01 T01770142  RH  080%=      5-min Rain = 0
KVP1 100803Z 21006KT 18/14 A3027 RMK A01 T01770142  RH  080%=      5-min Rain = 0
KVP1 100804Z 21006KT 18/14 A3027 RMK A01 T01770142  RH  080%=      5-min Rain = 0
KVP1 100805Z 21006KT 18/14 A3027 RMK A01 T01770142  RH  080%=      5-min Rain = 0
KVP1 100806Z 21006KT 18/14 A3027 RMK A01 T01770142  RH  080%=      5-min Rain = 0
KVP1 100807Z 21006KT 18/14 A3027 RMK A01 T01760141  RH  080%=      5-min Rain = 0
KVP1 100808Z 21006KT 18/14 A3027 RMK A01 T01760141  RH  080%=      5-min Rain = 0
KVP1 100809Z 21006KT 18/14 A3027 RMK A01 T01750141  RH  080%=      5-min Rain = 0
KVP1 100810Z 21006KT 18/14 A3027 RMK A01 T01750142  RH  081%=      5-min Rain = 0
KVP1 100811Z 21006KT 18/14 A3027 RMK A01 T01750142  RH  081%=      5-min Rain = 0
KVP1 100812Z 21006KT 18/14 A3027 RMK A01 T01750142  RH  081%=      5-min Rain = 0
KVP1 100813Z 21006KT 18/14 A3027 RMK A01 T01760143  RH  081%=      5-min Rain = 0
KVP1 100814Z 21006KT 18/14 A3027 RMK A01 T01750143  RH  081%=      5-min Rain = 0
KVP1 100815Z 21006KT 18/14 A3027 RMK A01 T01750143  RH  081%=      5-min Rain = 0
KVP1 100816Z 21006KT 18/14 A3027 RMK A01 T01750143  RH  082%=      5-min Rain = 0
KVP1 100817Z 21006KT 18/14 A3027 RMK A01 T01750143  RH  082%=      5-min Rain = 0
KVP1 100818Z 21006KT 18/14 A3027 RMK A01 T01750143  RH  082%=      5-min Rain = 0
KVP1 100819Z 21006KT 18/14 A3027 RMK A01 T01750143  RH  082%=      5-min Rain = 0
KVP1 100820Z 21006KT 18/14 A3027 RMK A01 T01750143  RH  082%=      5-min Rain = 0
KVP1 100821Z 21006KT 18/14 A3027 RMK A01 T01750143  RH  082%=      5-min Rain = 0
KVP1 100822Z 21006KT 18/14 A3027 RMK A01 T01750143  RH  082%=      5-min Rain = 0
KVP1 100823Z 21006KT 18/14 A3027 RMK A01 T01750143  RH  082%=      5-min Rain = 0
KVP1 100824Z 21005KT 18/14 A3027 RMK A01 T01750143  RH  082%=      5-min Rain = 0
KVP1 100825Z 21005KT 18/14 A3027 RMK A01 T01750143  RH  082%=      5-min Rain = 0
KVP1 100826Z 21005KT 18/14 A3027 RMK A01 T01750143  RH  082%=      5-min Rain = 0
KVP1 100827Z 21005KT 18/14 A3027 RMK A01 T01750143  RH  082%=      5-min Rain = 0
KVP1 100828Z 21005KT 18/14 A3027 RMK A01 T01750143  RH  082%=      5-min Rain = 0
KVP1 100829Z 22005KT 18/14 A3027 RMK A01 T01750143  RH  082%=      5-min Rain = 0
KVP1 100830Z 22005KT 18/14 A3027 RMK A01 T01750143  RH  081%=      5-min Rain = 0
KVP1 100831Z 22005KT 18/14 A3027 RMK A01 T01750143  RH  081%=      5-min Rain = 0
KVP1 100832Z 22005KT 18/14 A3027 RMK A01 T01760143  RH  081%=      5-min Rain = 0
KVP1 100833Z 22005KT 18/14 A3027 RMK A01 T01760143  RH  081%=      5-min Rain = 0
KVP1 100834Z 22005KT 18/14 A3027 RMK A01 T01760143  RH  081%=      5-min Rain = 0
KVP1 100835Z 22005KT 18/14 A3027 RMK A01 T01760143  RH  081%=      5-min Rain = 0
KVP1 100836Z 22005KT 18/14 A3027 RMK A01 T01760143  RH  081%=      5-min Rain = 0
KVP1 100837Z 22006KT 18/14 A3027 RMK A01 T01760144  RH  081%=      5-min Rain = 0
KVP1 100838Z 23006KT 18/14 A3027 RMK A01 T01760144  RH  081%=      5-min Rain = 0
KVP1 100839Z 23006KT 18/14 A3027 RMK A01 T01760143  RH  081%=      5-min Rain = 0
KVP1 100840Z 23006KT 18/14 A3027 RMK A01 T01770144  RH  081%=      5-min Rain = 0
KVP1 100841Z 23006KT 18/14 A3027 RMK A01 T01770143  RH  081%=      5-min Rain = 0
KVP1 100842Z 23006KT 18/14 A3027 RMK A01 T01770143  RH  081%=      5-min Rain = 0
KVP1 100843Z 23006KT 18/14 A3027 RMK A01 T01770143  RH  081%=      5-min Rain = 0
KVP1 100844Z 23006KT 18/14 A3027 RMK A01 T01770143  RH  081%=      5-min Rain = 0
KVP1 100845Z 23006KT 18/14 A3027 RMK A01 T01770143  RH  081%=      5-min Rain = 0
KVP1 100846Z 23007KT 18/14 A3027 RMK A01 T01770143  RH  081%=      5-min Rain = 0
KVP1 100847Z 23007KT 18/14 A3027 RMK A01 T01760143  RH  081%=      5-min Rain = 0
KVP1 100848Z 23007KT 18/14 A3027 RMK A01 T01760143  RH  081%=      5-min Rain = 0
KVP1 100849Z 23006KT 18/14 A3027 RMK A01 T01760143  RH  081%=      5-min Rain = 0
KVP1 100850Z 23006KT 18/14 A3027 RMK A01 T01750143  RH  081%=      5-min Rain = 0
KVP1 100851Z 23006KT 18/14 A3027 RMK A01 T01750143  RH  081%=      5-min Rain = 0
KVP1 100852Z 23006KT 18/14 A3027 RMK A01 T01750143  RH  081%=      5-min Rain = 0
KVP1 100853Z 23006KT 18/14 A3027 RMK A01 T01750143  RH  081%=      5-min Rain = 0
KVP1 100854Z 23006KT 18/14 A3027 RMK A01 T01750143  RH  081%=      5-min Rain = 0
KVP1 100855Z 23005KT 18/14 A3027 RMK A01 T01750143  RH  081%=      5-min Rain = 0
KVP1 100856Z 23005KT 18/14 A3027 RMK A01 T01750143  RH  081%=      5-min Rain = 0
KVP1 100857Z 23005KT 17/14 A3027 RMK A01 T01740142  RH  082%=      5-min Rain = 0
KVP1 100858Z 23005KT 17/14 A3027 RMK A01 T01740143  RH  082%=      5-min Rain = 0
KVP1 100859Z 23005KT 17/14 A3027 RMK A01 T01740142  RH  082%=      5-min Rain = 0
KVP1 100900Z 23005KT 17/14 A3027 RMK A01 T01740142  RH  081%=      5-min Rain = 0
KVP1 100901Z 23005KT 18/14 A3027 RMK A01 T01750143  RH  081%=      5-min Rain = 0
KVP1 100902Z 23005KT 17/14 A3027 RMK A01 T01740142  RH  082%=      5-min Rain = 0
KVP1 100903Z 23005KT 17/14 A3027 RMK A01 T01740142  RH  082%=      5-min Rain = 0
KVP1 100904Z 23006KT 17/14 A3027 RMK A01 T01740142  RH  081%=      5-min Rain = 0
KVP1 100905Z 23006KT 17/14 A3027 RMK A01 T01740142  RH  081%=      5-min Rain = 0
KVP1 100906Z 23006KT 18/14 A3027 RMK A01 T01750142  RH  081%=      5-min Rain = 0
KVP1 100907Z 23006KT 18/14 A3027 RMK A01 T01750142  RH  081%=      5-min Rain = 0
KVP1 100908Z 23006KT 18/14 A3027 RMK A01 T01750143  RH  081%=      5-min Rain = 0
KVP1 100909Z 22005KT 18/14 A3027 RMK A01 T01760143  RH  081%=      5-min Rain = 0
KVP1 100910Z 22005KT 18/14 A3027 RMK A01 T01760142  RH  081%=      5-min Rain = 0
KVP1 100911Z 22005KT 18/14 A3027 RMK A01 T01760142  RH  081%=      5-min Rain = 0
KVP1 100912Z 22005KT 18/14 A3027 RMK A01 T01760142  RH  080%=      5-min Rain = 0
KVP1 100913Z 22005KT 18/14 A3027 RMK A01 T01760142  RH  080%=      5-min Rain = 0
KVP1 100914Z 22005KT 18/14 A3027 RMK A01 T01760142  RH  080%=      5-min Rain = 0
KVP1 100915Z 22005KT 18/14 A3027 RMK A01 T01760142  RH  080%=      5-min Rain = 0
KVP1 100916Z 22005KT 18/14 A3027 RMK A01 T01770142  RH  080%=      5-min Rain = 0
KVP1 100917Z 22005KT 18/14 A3027 RMK A01 T01770142  RH  080%=      5-min Rain = 0
KVP1 100918Z 22005KT 18/14 A3027 RMK A01 T01770142  RH  080%=      5-min Rain = 0
KVP1 100919Z 22005KT 18/14 A3027 RMK A01 T01760142  RH  080%=      5-min Rain = 0
KVP1 100920Z 22005KT 18/14 A3027 RMK A01 T01760142  RH  080%=      5-min Rain = 0
KVP1 100921Z 22004KT 18/14 A3027 RMK A01 T01760142  RH  081%=      5-min Rain = 0
KVP1 100922Z 22004KT 18/14 A3027 RMK A01 T01760142  RH  081%=      5-min Rain = 0
KVP1 100923Z 22004KT 18/14 A3027 RMK A01 T01760143  RH  081%=      5-min Rain = 0
KVP1 100924Z 22004KT 18/14 A3027 RMK A01 T01760143  RH  081%=      5-min Rain = 0
KVP1 100925Z 22004KT 18/14 A3027 RMK A01 T01760143  RH  081%=      5-min Rain = 0
KVP1 100926Z 22004KT 18/14 A3027 RMK A01 T01760143  RH  081%=      5-min Rain = 0
KVP1 100927Z 22004KT 18/14 A3027 RMK A01 T01770144  RH  081%=      5-min Rain = 0
KVP1 100928Z 22004KT 18/14 A3027 RMK A01 T01770144  RH  081%=      5-min Rain = 0
KVP1 100929Z 22004KT 18/14 A3027 RMK A01 T01780144  RH  081%=      5-min Rain = 0
KVP1 100930Z 22004KT 18/14 A3027 RMK A01 T01770144  RH  081%=      5-min Rain = 0
KVP1 100931Z 22004KT 18/14 A3027 RMK A01 T01770144  RH  081%=      5-min Rain = 0
KVP1 100932Z 22004KT 18/14 A3027 RMK A01 T01780144  RH  081%=      5-min Rain = 0
KVP1 100933Z 22004KT 18/14 A3027 RMK A01 T01780144  RH  081%=      5-min Rain = 0
KVP1 100934Z 22004KT 18/15 A3027 RMK A01 T01770145  RH  081%=      5-min Rain = 0
KVP1 100935Z 22004KT 18/15 A3027 RMK A01 T01770145  RH  081%=      5-min Rain = 0
KVP1 100936Z 22005KT 18/14 A3027 RMK A01 T01760144  RH  082%=      5-min Rain = 0
KVP1 100937Z 22005KT 18/15 A3027 RMK A01 T01760145  RH  082%=      5-min Rain = 0
KVP1 100938Z 22004KT 18/14 A3027 RMK A01 T01760144  RH  082%=      5-min Rain = 0
KVP1 100939Z 21004KT 18/14 A3027 RMK A01 T01750144  RH  082%=      5-min Rain = 0
KVP1 100940Z 21004KT 18/14 A3027 RMK A01 T01750144  RH  082%=      5-min Rain = 0
KVP1 100941Z 21005KT 17/14 A3027 RMK A01 T01740144  RH  082%=      5-min Rain = 0
KVP1 100942Z 22005KT 18/14 A3027 RMK A01 T01750144  RH  082%=      5-min Rain = 0
KVP1 100943Z 22005KT 18/14 A3027 RMK A01 T01750144  RH  082%=      5-min Rain = 0
KVP1 100944Z 22005KT 17/14 A3027 RMK A01 T01740144  RH  083%=      5-min Rain = 0
KVP1 100945Z 22005KT 17/14 A3027 RMK A01 T01740144  RH  083%=      5-min Rain = 0
KVP1 100946Z 22005KT 17/14 A3027 RMK A01 T01730144  RH  083%=      5-min Rain = 0
KVP1 100947Z 22005KT 17/14 A3027 RMK A01 T01730144  RH  083%=      5-min Rain = 0
KVP1 100948Z 22005KT 17/15 A3027 RMK A01 T01730145  RH  083%=      5-min Rain = 0
KVP1 100949Z 22005KT 17/14 A3027 RMK A01 T01730144  RH  083%=      5-min Rain = 0
KVP1 100950Z 22005KT 17/14 A3027 RMK A01 T01720144  RH  084%=      5-min Rain = 0
KVP1 100951Z 22005KT 17/14 A3027 RMK A01 T01720144  RH  084%=      5-min Rain = 0
KVP1 100952Z 22005KT 17/14 A3027 RMK A01 T01720144  RH  084%=      5-min Rain = 0
KVP1 100953Z 22005KT 17/14 A3027 RMK A01 T01710144  RH  084%=      5-min Rain = 0
KVP1 100954Z 22005KT 17/14 A3027 RMK A01 T01710143  RH  084%=      5-min Rain = 0
KVP1 100955Z 22004KT 17/14 A3027 RMK A01 T01700143  RH  084%=      5-min Rain = 0
KVP1 100956Z 22004KT 17/14 A3027 RMK A01 T01700143  RH  084%=      5-min Rain = 0
KVP1 100957Z 22004KT 17/14 A3027 RMK A01 T01700143  RH  084%=      5-min Rain = 0
KVP1 100958Z 22004KT 17/14 A3027 RMK A01 T01700143  RH  084%=      5-min Rain = 0
KVP1 100959Z 22004KT 17/14 A3027 RMK A01 T01700143  RH  084%=      5-min Rain = 0
KVP1 101000Z 22004KT 17/14 A3027 RMK A01 T01700143  RH  084%=      5-min Rain = 0
KVP1 101001Z 22004KT 17/14 A3027 RMK A01 T01700143  RH  084%=      5-min Rain = 0
KVP1 101002Z 22004KT 17/14 A3027 RMK A01 T01700142  RH  083%=      5-min Rain = 0
KVP1 101003Z 22004KT 17/14 A3027 RMK A01 T01710142  RH  083%=      5-min Rain = 0
KVP1 101004Z 22004KT 17/14 A3027 RMK A01 T01710142  RH  083%=      5-min Rain = 0
KVP1 101005Z 22004KT 17/14 A3027 RMK A01 T01710142  RH  083%=      5-min Rain = 0
KVP1 101006Z 22004KT 17/14 A3027 RMK A01 T01710142  RH  083%=      5-min Rain = 0
KVP1 101007Z 22004KT 17/14 A3027 RMK A01 T01700142  RH  083%=      5-min Rain = 0
KVP1 101008Z 22004KT 17/14 A3027 RMK A01 T01700141  RH  083%=      5-min Rain = 0
KVP1 101009Z 22004KT 17/14 A3027 RMK A01 T01700140  RH  083%=      5-min Rain = 0
KVP1 101010Z 22004KT 17/14 A3027 RMK A01 T01700140  RH  083%=      5-min Rain = 0
KVP1 101011Z 22004KT 17/14 A3027 RMK A01 T01700140  RH  083%=      5-min Rain = 0
KVP1 101012Z 21004KT 17/14 A3027 RMK A01 T01700140  RH  083%=      5-min Rain = 0
KVP1 101013Z 21004KT 17/14 A3027 RMK A01 T01700140  RH  083%=      5-min Rain = 0
KVP1 101014Z 21004KT 17/14 A3027 RMK A01 T01700140  RH  083%=      5-min Rain = 0
KVP1 101015Z 21004KT 17/14 A3027 RMK A01 T01700141  RH  083%=      5-min Rain = 0
KVP1 101016Z 21004KT 17/14 A3027 RMK A01 T01690140  RH  083%=      5-min Rain = 0
KVP1 101017Z 21004KT 17/14 A3027 RMK A01 T01690141  RH  084%=      5-min Rain = 0
KVP1 101018Z 21004KT 17/14 A3027 RMK A01 T01690141  RH  083%=      5-min Rain = 0
KVP1 101019Z 21004KT 17/14 A3027 RMK A01 T01700141  RH  083%=      5-min Rain = 0
KVP1 101020Z 21004KT 17/14 A3027 RMK A01 T01690141  RH  083%=      5-min Rain = 0
KVP1 101021Z 21004KT 17/14 A3027 RMK A01 T01690140  RH  083%=      5-min Rain = 0
KVP1 101022Z 21004KT 17/14 A3027 RMK A01 T01690140  RH  083%=      5-min Rain = 0
KVP1 101023Z 21004KT 17/14 A3027 RMK A01 T01690140  RH  083%=      5-min Rain = 0
KVP1 101024Z 21004KT 17/14 A3027 RMK A01 T01690141  RH  084%=      5-min Rain = 0
KVP1 101025Z 21004KT 17/14 A3027 RMK A01 T01690141  RH  084%=      5-min Rain = 0
KVP1 101026Z 21004KT 17/14 A3027 RMK A01 T01690141  RH  083%=      5-min Rain = 0
KVP1 101027Z 21004KT 17/14 A3027 RMK A01 T01690141  RH  083%=      5-min Rain = 0
KVP1 101028Z 21004KT 17/14 A3027 RMK A01 T01690140  RH  083%=      5-min Rain = 0
KVP1 101029Z 22004KT 17/14 A3027 RMK A01 T01690140  RH  083%=      5-min Rain = 0
KVP1 101030Z 22004KT 17/14 A3027 RMK A01 T01680140  RH  083%=      5-min Rain = 0
KVP1 101031Z 22004KT 17/14 A3027 RMK A01 T01680140  RH  083%=      5-min Rain = 0
KVP1 101032Z 22004KT 17/14 A3027 RMK A01 T01680140  RH  083%=      5-min Rain = 0
KVP1 101033Z 22004KT 17/14 A3027 RMK A01 T01680140  RH  084%=      5-min Rain = 0
KVP1 101034Z 22004KT 17/14 A3027 RMK A01 T01690141  RH  084%=      5-min Rain = 0
KVP1 101035Z 22004KT 17/14 A3027 RMK A01 T01690141  RH  084%=      5-min Rain = 0
KVP1 101036Z 22004KT 17/14 A3027 RMK A01 T01680141  RH  084%=      5-min Rain = 0
KVP1 101037Z 22004KT 17/14 A3027 RMK A01 T01690142  RH  084%=      5-min Rain = 0
KVP1 101038Z 22004KT 17/14 A3027 RMK A01 T01690141  RH  084%=      5-min Rain = 0
KVP1 101039Z 22004KT 17/14 A3027 RMK A01 T01690142  RH  084%=      5-min Rain = 0
KVP1 101040Z 22004KT 17/14 A3027 RMK A01 T01690142  RH  084%=      5-min Rain = 0
KVP1 101041Z 22004KT 17/14 A3027 RMK A01 T01690142  RH  084%=      5-min Rain = 0
KVP1 101042Z 22004KT 17/14 A3027 RMK A01 T01690142  RH  084%=      5-min Rain = 0
KVP1 101043Z 22004KT 17/14 A3027 RMK A01 T01680141  RH  084%=      5-min Rain = 0
KVP1 101044Z 22005KT 17/14 A3027 RMK A01 T01680142  RH  085%=      5-min Rain = 0
KVP1 101045Z 22005KT 17/14 A3027 RMK A01 T01680142  RH  085%=      5-min Rain = 0
KVP1 101046Z 23005KT 17/14 A3027 RMK A01 T01670142  RH  085%=      5-min Rain = 0
KVP1 101047Z 23005KT 17/14 A3027 RMK A01 T01670142  RH  085%=      5-min Rain = 0
KVP1 101048Z 23005KT 17/14 A3027 RMK A01 T01660142  RH  085%=      5-min Rain = 0
KVP1 101049Z 23005KT 17/14 A3027 RMK A01 T01660142  RH  086%=      5-min Rain = 0
KVP1 101050Z 23005KT 17/14 A3027 RMK A01 T01660143  RH  086%=      5-min Rain = 0
KVP1 101051Z 23005KT 17/14 A3027 RMK A01 T01650143  RH  087%=      5-min Rain = 0
KVP1 101052Z 23005KT 17/14 A3027 RMK A01 T01650143  RH  087%=      5-min Rain = 0
KVP1 101053Z 23004KT 16/14 A3027 RMK A01 T01640143  RH  087%=      5-min Rain = 0
KVP1 101054Z 24004KT 17/14 A3027 RMK A01 T01650143  RH  087%=      5-min Rain = 0
KVP1 101055Z 24004KT 16/14 A3027 RMK A01 T01640143  RH  087%=      5-min Rain = 0
KVP1 101056Z 24004KT 16/14 A3027 RMK A01 T01640143  RH  087%=      5-min Rain = 0
KVP1 101057Z 24004KT 16/14 A3027 RMK A01 T01640143  RH  087%=      5-min Rain = 0
KVP1 101058Z 24004KT 16/14 A3027 RMK A01 T01640143  RH  087%=      5-min Rain = 0
KVP1 101059Z 24004KT 16/14 A3027 RMK A01 T01640143  RH  087%=      5-min Rain = 0
KVP1 101100Z 24004KT 16/14 A3027 RMK A01 T01640144  RH  088%=      5-min Rain = 0
KVP1 101101Z 24004KT 16/14 A3027 RMK A01 T01640144  RH  088%=      5-min Rain = 0
KVP1 101102Z 24004KT 16/14 A3027 RMK A01 T01630144  RH  088%=      5-min Rain = 0
KVP1 101103Z 24004KT 16/15 A3027 RMK A01 T01640146  RH  089%=      5-min Rain = 0
KVP1 101104Z 24004KT 16/15 A3027 RMK A01 T01640146  RH  089%=      5-min Rain = 0
KVP1 101105Z 24004KT 16/15 A3027 RMK A01 T01640145  RH  088%=      5-min Rain = 0
KVP1 101106Z 24005KT 16/15 A3027 RMK A01 T01640145  RH  088%=      5-min Rain = 0
KVP1 101107Z 24005KT 16/15 A3027 RMK A01 T01640145  RH  089%=      5-min Rain = 0
KVP1 101108Z 24005KT 16/15 A3027 RMK A01 T01640145  RH  089%=      5-min Rain = 0
KVP1 101109Z 25005KT 16/15 A3027 RMK A01 T01630145  RH  089%=      5-min Rain = 0
KVP1 101110Z 25005KT 16/15 A3027 RMK A01 T01630145  RH  089%=      5-min Rain = 0
KVP1 101111Z 25005KT 16/14 A3027 RMK A01 T01620143  RH  089%=      5-min Rain = 0
KVP1 101112Z 25006KT 16/14 A3027 RMK A01 T01610143  RH  089%=      5-min Rain = 0
KVP1 101113Z 25005KT 16/14 A3027 RMK A01 T01600142  RH  089%=      5-min Rain = 0
KVP1 101114Z 25005KT 16/14 A3027 RMK A01 T01590142  RH  089%=      5-min Rain = 0
KVP1 101115Z 25005KT 16/14 A3027 RMK A01 T01590142  RH  090%=      5-min Rain = 0
KVP1 101116Z 25005KT 16/14 A3027 RMK A01 T01590142  RH  090%=      5-min Rain = 0
KVP1 101117Z 25004KT 16/14 A3027 RMK A01 T01580142  RH  090%=      5-min Rain = 0
KVP1 101118Z 26004KT 16/14 A3027 RMK A01 T01580141  RH  090%=      5-min Rain = 0
KVP1 101119Z 26004KT 16/14 A3027 RMK A01 T01580141  RH  090%=      5-min Rain = 0
KVP1 101120Z 26004KT 16/14 A3027 RMK A01 T01580141  RH  090%=      5-min Rain = 0
KVP1 101121Z 26004KT 16/14 A3027 RMK A01 T01580141  RH  090%=      5-min Rain = 0
KVP1 101122Z 26004KT 16/14 A3027 RMK A01 T01590142  RH  090%=      5-min Rain = 0
KVP1 101123Z 26004KT 16/14 A3027 RMK A01 T01590142  RH  090%=      5-min Rain = 0
KVP1 101124Z 26004KT 16/14 A3027 RMK A01 T01590142  RH  090%=      5-min Rain = 0
KVP1 101125Z 26004KT 16/14 A3027 RMK A01 T01600142  RH  089%=      5-min Rain = 0
KVP1 101126Z 26004KT 16/14 A3027 RMK A01 T01590142  RH  089%=      5-min Rain = 0
KVP1 101127Z 26003KT 16/14 A3027 RMK A01 T01600142  RH  089%=      5-min Rain = 0
KVP1 101128Z 26004KT 16/14 A3027 RMK A01 T01600142  RH  089%=      5-min Rain = 0
KVP1 101129Z 27004KT 16/14 A3027 RMK A01 T01600142  RH  089%=      5-min Rain = 0
KVP1 101130Z 27004KT 16/14 A3027 RMK A01 T01590141  RH  089%=      5-min Rain = 0
KVP1 101131Z 27004KT 16/14 A3027 RMK A01 T01590141  RH  089%=      5-min Rain = 0
KVP1 101132Z 27004KT 16/14 A3027 RMK A01 T01590140  RH  089%=      5-min Rain = 0
KVP1 101133Z 27004KT 16/14 A3027 RMK A01 T01580140  RH  089%=      5-min Rain = 0
KVP1 101134Z 27004KT 16/14 A3027 RMK A01 T01570139  RH  089%=      5-min Rain = 0
KVP1 101135Z 27004KT 16/14 A3027 RMK A01 T01580140  RH  089%=      5-min Rain = 0
KVP1 101136Z 27004KT 16/14 A3027 RMK A01 T01570139  RH  089%=      5-min Rain = 0
KVP1 101137Z 27005KT 16/14 A3027 RMK A01 T01570139  RH  089%=      5-min Rain = 0
KVP1 101138Z 27005KT 16/14 A3027 RMK A01 T01570139  RH  089%=      5-min Rain = 0
KVP1 101139Z 27004KT 16/14 A3027 RMK A01 T01560138  RH  089%=      5-min Rain = 0
KVP1 101140Z 27004KT 16/14 A3027 RMK A01 T01550138  RH  089%=      5-min Rain = 0
KVP1 101141Z 27004KT 16/14 A3027 RMK A01 T01550138  RH  090%=      5-min Rain = 0
KVP1 101142Z 27004KT 16/14 A3027 RMK A01 T01550138  RH  090%=      5-min Rain = 0
KVP1 101143Z 27004KT 15/14 A3027 RMK A01 T01540138  RH  090%=      5-min Rain = 0
KVP1 101144Z 27004KT 15/14 A3027 RMK A01 T01540139  RH  090%=      5-min Rain = 0
KVP1 101145Z 27004KT 15/14 A3027 RMK A01 T01540138  RH  090%=      5-min Rain = 0
KVP1 101146Z 27004KT 15/14 A3027 RMK A01 T01540138  RH  090%=      5-min Rain = 0
KVP1 101147Z 27004KT 15/14 A3027 RMK A01 T01540138  RH  090%=      5-min Rain = 0
KVP1 101148Z 27004KT 15/14 A3027 RMK A01 T01540138  RH  090%=      5-min Rain = 0
KVP1 101149Z 27004KT 15/14 A3027 RMK A01 T01540138  RH  090%=      5-min Rain = 0
KVP1 101150Z 27004KT 15/14 A3027 RMK A01 T01540138  RH  090%=      5-min Rain = 0
KVP1 101151Z 27004KT 16/14 A3027 RMK A01 T01550139  RH  090%=      5-min Rain = 0
KVP1 101152Z 27004KT 16/14 A3027 RMK A01 T01550139  RH  090%=      5-min Rain = 0
KVP1 101153Z 27004KT 16/14 A3027 RMK A01 T01560139  RH  090%=      5-min Rain = 0
KVP1 101154Z 27004KT 16/14 A3027 RMK A01 T01560139  RH  089%=      5-min Rain = 0
KVP1 101155Z 27004KT 16/14 A3027 RMK A01 T01570139  RH  089%=      5-min Rain = 0
KVP1 101156Z 27004KT 16/14 A3027 RMK A01 T01570139  RH  089%=      5-min Rain = 0
KVP1 101157Z 27004KT 16/14 A3027 RMK A01 T01570139  RH  089%=      5-min Rain = 0
KVP1 101158Z 27004KT 16/14 A3027 RMK A01 T01570139  RH  089%=      5-min Rain = 0
KVP1 101159Z 28004KT 16/14 A3027 RMK A01 T01570140  RH  089%=      5-min Rain = 0
KVP1 101200Z 28004KT 16/14 A3027 RMK A01 T01570140  RH  089%=      5-min Rain = 0
KVP1 101201Z 28004KT 16/14 A3027 RMK A01 T01570140  RH  089%=      5-min Rain = 0
KVP1 101202Z 28004KT 16/14 A3027 RMK A01 T01570139  RH  089%=      5-min Rain = 0
KVP1 101203Z 28004KT 16/14 A3027 RMK A01 T01570139  RH  089%=      5-min Rain = 0
KVP1 101204Z 28004KT 16/14 A3027 RMK A01 T01580140  RH  089%=      5-min Rain = 0
KVP1 101205Z 28004KT 16/14 A3027 RMK A01 T01580140  RH  089%=      5-min Rain = 0
KVP1 101206Z 28004KT 16/14 A3027 RMK A01 T01590141  RH  089%=      5-min Rain = 0
KVP1 101207Z 28004KT 16/14 A3027 RMK A01 T01600141  RH  089%=      5-min Rain = 0
KVP1 101208Z 28004KT 16/14 A3027 RMK A01 T01610142  RH  088%=      5-min Rain = 0
KVP1 101209Z 28004KT 16/14 A3027 RMK A01 T01620142  RH  088%=      5-min Rain = 0
KVP1 101210Z 28004KT 16/14 A3027 RMK A01 T01620142  RH  088%=      5-min Rain = 0
KVP1 101211Z 28004KT 16/14 A3027 RMK A01 T01630143  RH  088%=      5-min Rain = 0
KVP1 101212Z 28004KT 16/14 A3027 RMK A01 T01640143  RH  088%=      5-min Rain = 0
KVP1 101213Z 28004KT 16/14 A3027 RMK A01 T01640143  RH  087%=      5-min Rain = 0
KVP1 101214Z 29004KT 17/14 A3027 RMK A01 T01650143  RH  087%=      5-min Rain = 0
KVP1 101215Z 29004KT 17/14 A3027 RMK A01 T01660144  RH  087%=      5-min Rain = 0
KVP1 101216Z 29005KT 17/14 A3027 RMK A01 T01660144  RH  087%=      5-min Rain = 0
KVP1 101217Z 29005KT 17/14 A3027 RMK A01 T01670144  RH  086%=      5-min Rain = 0
KVP1 101218Z 29005KT 17/14 A3027 RMK A01 T01670144  RH  086%=      5-min Rain = 0
KVP1 101219Z 29005KT 17/14 A3027 RMK A01 T01670144  RH  086%=      5-min Rain = 0
KVP1 101220Z 29005KT 17/15 A3027 RMK A01 T01680145  RH  086%=      5-min Rain = 0
KVP1 101221Z 29005KT 17/15 A3027 RMK A01 T01680146  RH  086%=      5-min Rain = 0
KVP1 101222Z 29005KT 17/15 A3027 RMK A01 T01690146  RH  086%=      5-min Rain = 0
KVP1 101223Z 29004KT 17/15 A3027 RMK A01 T01690147  RH  087%=      5-min Rain = 0
KVP1 101224Z 29004KT 17/15 A3027 RMK A01 T01700148  RH  087%=      5-min Rain = 0
KVP1 101225Z 29004KT 17/15 A3027 RMK A01 T01710149  RH  086%=      5-min Rain = 0
KVP1 101226Z 29004KT 17/15 A3027 RMK A01 T01720149  RH  086%=      5-min Rain = 0
KVP1 101227Z 29004KT 17/15 A3027 RMK A01 T01730150  RH  086%=      5-min Rain = 0
KVP1 101228Z 29004KT 17/15 A3027 RMK A01 T01740151  RH  086%=      5-min Rain = 0
KVP1 101229Z 29004KT 18/15 A3027 RMK A01 T01750151  RH  086%=      5-min Rain = 0
KVP1 101230Z 29004KT 18/15 A3028 RMK A01 T01770152  RH  086%=      5-min Rain = 0
KVP1 101231Z 29003KT 18/15 A3028 RMK A01 T01780153  RH  085%=      5-min Rain = 0
KVP1 101232Z 29003KT 18/15 A3028 RMK A01 T01790154  RH  086%=      5-min Rain = 0
KVP1 101233Z 29003KT 18/16 A3028 RMK A01 T01800155  RH  085%=      5-min Rain = 0
KVP1 101234Z 29003KT 18/16 A3028 RMK A01 T01810155  RH  085%=      5-min Rain = 0
KVP1 101235Z 29003KT 18/16 A3028 RMK A01 T01820156  RH  085%=      5-min Rain = 0
KVP1 101236Z 29003KT 18/16 A3028 RMK A01 T01840157  RH  084%=      5-min Rain = 0
KVP1 101237Z 29003KT 19/16 A3028 RMK A01 T01850158  RH  084%=      5-min Rain = 0
KVP1 101238Z 29003KT 19/16 A3028 RMK A01 T01860157  RH  083%=      5-min Rain = 0
KVP1 101239Z 29003KT 19/16 A3028 RMK A01 T01870158  RH  083%=      5-min Rain = 0
KVP1 101240Z 29003KT 19/16 A3028 RMK A01 T01880158  RH  083%=      5-min Rain = 0
KVP1 101241Z 28004KT 19/16 A3028 RMK A01 T01890158  RH  082%=      5-min Rain = 0
KVP1 101242Z 29004KT 19/16 A3028 RMK A01 T01900158  RH  082%=      5-min Rain = 0
KVP1 101243Z 29004KT 19/16 A3028 RMK A01 T01910158  RH  081%=      5-min Rain = 0
KVP1 101244Z 29004KT 19/16 A3028 RMK A01 T01910157  RH  081%=      5-min Rain = 0
KVP1 101245Z 28003KT 19/16 A3028 RMK A01 T01920159  RH  081%=      5-min Rain = 0
KVP1 101246Z 29004KT 19/16 A3028 RMK A01 T01930158  RH  081%=      5-min Rain = 0
KVP1 101247Z 29004KT 19/16 A3028 RMK A01 T01930157  RH  080%=      5-min Rain = 0
KVP1 101248Z 29004KT 19/16 A3028 RMK A01 T01930157  RH  080%=      5-min Rain = 0
KVP1 101249Z 29004KT 19/16 A3028 RMK A01 T01940157  RH  079%=      5-min Rain = 0
KVP1 101250Z 29004KT 19/16 A3028 RMK A01 T01940158  RH  079%=      5-min Rain = 0
KVP1 101251Z 29004KT 20/16 A3028 RMK A01 T01950158  RH  079%=      5-min Rain = 0
KVP1 101252Z 29003KT 20/16 A3028 RMK A01 T01950158  RH  079%=      5-min Rain = 0
KVP1 101253Z 29004KT 20/16 A3028 RMK A01 T01960159  RH  079%=      5-min Rain = 0
KVP1 101254Z 29003KT 20/16 A3028 RMK A01 T01960158  RH  079%=      5-min Rain = 0
KVP1 101255Z 29004KT 20/16 A3028 RMK A01 T01970158  RH  078%=      5-min Rain = 0
KVP1 101256Z 28003KT 20/16 A3028 RMK A01 T01970159  RH  079%=      5-min Rain = 0
KVP1 101257Z 28003KT 20/16 A3028 RMK A01 T01980160  RH  079%=      5-min Rain = 0
KVP1 101258Z 28003KT 20/16 A3028 RMK A01 T01990161  RH  079%=      5-min Rain = 0
KVP1 101259Z 28004KT 20/16 A3028 RMK A01 T02000161  RH  078%=      5-min Rain = 0
KVP1 101300Z 28004KT 20/16 A3028 RMK A01 T02010161  RH  078%=      5-min Rain = 0
KVP1 101301Z 28004KT 20/16 A3028 RMK A01 T02020162  RH  078%=      5-min Rain = 0
KVP1 101302Z 28004KT 20/16 A3028 RMK A01 T02030162  RH  077%=      5-min Rain = 0
KVP1 101303Z 28003KT 20/16 A3028 RMK A01 T02040163  RH  077%=      5-min Rain = 0
KVP1 101304Z 27003KT 21/17 A3028 RMK A01 T02050165  RH  078%=      5-min Rain = 0
KVP1 101305Z 29003KT 21/16 A3028 RMK A01 T02060164  RH  077%=      5-min Rain = 0
KVP1 101306Z 28003KT 21/16 A3028 RMK A01 T02080164  RH  076%=      5-min Rain = 0
KVP1 101307Z 28002KT 21/17 A3028 RMK A01 T02090165  RH  076%=      5-min Rain = 0
KVP1 101308Z 29003KT 21/17 A3028 RMK A01 T02100165  RH  075%=      5-min Rain = 0
KVP1 101309Z 29004KT 21/16 A3028 RMK A01 T02120163  RH  074%=      5-min Rain = 0
KVP1 101310Z 29003KT 21/16 A3028 RMK A01 T02130162  RH  073%=      5-min Rain = 0
KVP1 101311Z 29003KT 21/16 A3028 RMK A01 T02140164  RH  073%=      5-min Rain = 0
KVP1 101312Z 28003KT 22/16 A3028 RMK A01 T02150164  RH  073%=      5-min Rain = 0
KVP1 101313Z 29003KT 22/16 A3028 RMK A01 T02160163  RH  072%=      5-min Rain = 0
KVP1 101314Z 29003KT 22/16 A3028 RMK A01 T02170164  RH  072%=      5-min Rain = 0
KVP1 101315Z 29004KT 22/16 A3028 RMK A01 T02180162  RH  070%=      5-min Rain = 0
KVP1 101316Z 29004KT 22/16 A3028 RMK A01 T02190162  RH  070%=      5-min Rain = 0
KVP1 101317Z 29004KT 22/16 A3028 RMK A01 T02190163  RH  070%=      5-min Rain = 0
KVP1 101318Z 29004KT 22/16 A3028 RMK A01 T02210163  RH  070%=      5-min Rain = 0
KVP1 101319Z 29004KT 22/16 A3028 RMK A01 T02210163  RH  069%=      5-min Rain = 0
KVP1 101320Z 30003KT 22/16 A3028 RMK A01 T02230163  RH  069%=      5-min Rain = 0
KVP1 101321Z 30004KT 22/16 A3028 RMK A01 T02240163  RH  069%=      5-min Rain = 0
KVP1 101322Z 30003KT 23/16 A3028 RMK A01 T02250164  RH  068%=      5-min Rain = 0
KVP1 101323Z 29003KT 23/16 A3028 RMK A01 T02250164  RH  068%=      5-min Rain = 0
KVP1 101324Z 29003KT 23/16 A3028 RMK A01 T02260164  RH  068%=      5-min Rain = 0
KVP1 101325Z 30002KT 23/17 A3028 RMK A01 T02270165  RH  068%=      5-min Rain = 0
KVP1 101326Z 30003KT 23/17 A3028 RMK A01 T02290165  RH  067%=      5-min Rain = 0
KVP1 101327Z 30003KT 23/16 A3028 RMK A01 T02300164  RH  066%=      5-min Rain = 0
KVP1 101328Z 31003KT 23/16 A3028 RMK A01 T02310164  RH  066%=      5-min Rain = 0
KVP1 101329Z 30003KT 23/17 A3028 RMK A01 T02320165  RH  066%=      5-min Rain = 0
KVP1 101330Z 30003KT 23/16 A3028 RMK A01 T02330164  RH  065%=      5-min Rain = 0
KVP1 101331Z 31003KT 24/16 A3028 RMK A01 T02350164  RH  064%=      5-min Rain = 0
KVP1 101332Z 30002KT 24/16 A3028 RMK A01 T02360164  RH  064%=      5-min Rain = 0
KVP1 101333Z 30003KT 24/17 A3028 RMK A01 T02380166  RH  064%=      5-min Rain = 0
KVP1 101334Z 31003KT 24/16 A3028 RMK A01 T02390164  RH  063%=      5-min Rain = 0
KVP1 101335Z 31003KT 24/16 A3028 RMK A01 T02390164  RH  063%=      5-min Rain = 0
KVP1 101336Z 31003KT 24/17 A3028 RMK A01 T02400165  RH  063%=      5-min Rain = 0
KVP1 101337Z 31003KT 24/16 A3028 RMK A01 T02410163  RH  062%=      5-min Rain = 0
KVP1 101338Z 32003KT 24/17 A3028 RMK A01 T02420165  RH  062%=      5-min Rain = 0
KVP1 101339Z 32004KT 24/16 A3028 RMK A01 T02430164  RH  061%=      5-min Rain = 0
KVP1 101340Z 32004KT 24/16 A3028 RMK A01 T02440163  RH  060%=      5-min Rain = 0
KVP1 101341Z 31003KT 25/16 A3028 RMK A01 T02450162  RH  060%=      5-min Rain = 0
KVP1 101342Z 34003KT 25/16 A3028 RMK A01 T02460163  RH  060%=      5-min Rain = 0
KVP1 101343Z 33003KT 25/17 A3028 RMK A01 T02460165  RH  060%=      5-min Rain = 0
KVP1 101344Z 32002KT 25/16 A3028 RMK A01 T02470162  RH  059%=      5-min Rain = 0
KVP1 101345Z 33003KT 25/16 A3028 RMK A01 T02480163  RH  059%=      5-min Rain = 0
KVP1 101346Z 33003KT 25/16 A3028 RMK A01 T02480164  RH  059%=      5-min Rain = 0
KVP1 101347Z 33003KT 25/16 A3028 RMK A01 T02490161  RH  058%=      5-min Rain = 0
KVP1 101348Z 32003KT 25/16 A3028 RMK A01 T02490163  RH  059%=      5-min Rain = 0
KVP1 101349Z 34003KT 25/16 A3028 RMK A01 T02490164  RH  059%=      5-min Rain = 0
KVP1 101350Z 35003KT 25/16 A3028 RMK A01 T02510163  RH  058%=      5-min Rain = 0
KVP1 101351Z 35004KT 25/16 A3028 RMK A01 T02520161  RH  057%=      5-min Rain = 0
KVP1 101352Z 35003KT 25/16 A3028 RMK A01 T02520161  RH  057%=      5-min Rain = 0
KVP1 101353Z 36002KT 25/16 A3028 RMK A01 T02530162  RH  057%=      5-min Rain = 0
KVP1 101354Z 34002KT 25/16 A3028 RMK A01 T02540162  RH  057%=      5-min Rain = 0
KVP1 101355Z 36002KT 26/16 A3028 RMK A01 T02550163  RH  056%=      5-min Rain = 0
KVP1 101356Z 32003KT 26/16 A3028 RMK A01 T02560163  RH  056%=      5-min Rain = 0
KVP1 101357Z 31003KT 26/16 A3028 RMK A01 T02570160  RH  055%=      5-min Rain = 0
KVP1 101358Z 30001KT 26/16 A3028 RMK A01 T02570161  RH  055%=      5-min Rain = 0
KVP1 101359Z 31003KT 26/16 A3028 RMK A01 T02570162  RH  056%=      5-min Rain = 0
KVP1 101400Z 30003KT 26/16 A3028 RMK A01 T02580161  RH  055%=      5-min Rain = 0
KVP1 101401Z 30003KT 26/16 A3028 RMK A01 T02590162  RH  055%=      5-min Rain = 0
KVP1 101402Z 30003KT 26/16 A3028 RMK A01 T02590161  RH  055%=      5-min Rain = 0
KVP1 101403Z 29002KT 26/16 A3028 RMK A01 T02590162  RH  055%=      5-min Rain = 0
KVP1 101404Z 29002KT 26/16 A3028 RMK A01 T02600162  RH  054%=      5-min Rain = 0
KVP1 101405Z 30001KT 26/16 A3028 RMK A01 T02610161  RH  054%=      5-min Rain = 0
KVP1 101406Z 34002KT 26/17 A3028 RMK A01 T02610165  RH  055%=      5-min Rain = 0
KVP1 101407Z 32004KT 26/17 A3028 RMK A01 T02630166  RH  055%=      5-min Rain = 0
KVP1 101408Z 30002KT 26/16 A3028 RMK A01 T02640162  RH  053%=      5-min Rain = 0
KVP1 101409Z 29001KT 26/16 A3028 RMK A01 T02640161  RH  053%=      5-min Rain = 0
KVP1 101410Z 33002KT 26/16 A3028 RMK A01 T02640164  RH  054%=      5-min Rain = 0
KVP1 101411Z 30003KT 27/16 A3028 RMK A01 T02650164  RH  054%=      5-min Rain = 0
KVP1 101412Z 29003KT 27/16 A3028 RMK A01 T02660162  RH  053%=      5-min Rain = 0
KVP1 101413Z 31003KT 27/16 A3028 RMK A01 T02670164  RH  053%=      5-min Rain = 0
KVP1 101414Z 31004KT 27/16 A3028 RMK A01 T02680163  RH  053%=      5-min Rain = 0
KVP1 101415Z 31003KT 27/16 A3028 RMK A01 T02680162  RH  052%=      5-min Rain = 0
KVP1 101416Z 29005KT 27/17 A3028 RMK A01 T02680165  RH  053%=      5-min Rain = 0
KVP1 101417Z 28004KT 27/16 A3028 RMK A01 T02690163  RH  052%=      5-min Rain = 0
KVP1 101418Z 26003KT 27/16 A3028 RMK A01 T02690162  RH  052%=      5-min Rain = 0
KVP1 101419Z 26001KT 27/16 A3028 RMK A01 T02690162  RH  052%=      5-min Rain = 0
KVP1 101420Z 28002KT 27/16 A3028 RMK A01 T02680162  RH  052%=      5-min Rain = 0
KVP1 101421Z 33003KT 27/16 A3028 RMK A01 T02680162  RH  052%=      5-min Rain = 0
KVP1 101422Z 30001KT 27/16 A3028 RMK A01 T02670160  RH  052%=      5-min Rain = 0
KVP1 101423Z 32001KT 27/16 A3028 RMK A01 T02670163  RH  053%=      5-min Rain = 0
KVP1 101424Z 28002KT 27/16 A3028 RMK A01 T02690163  RH  052%=      5-min Rain = 0
KVP1 101425Z 27001KT 27/16 A3028 RMK A01 T02710164  RH  052%=      5-min Rain = 0
KVP1 101426Z 27001KT 27/16 A3028 RMK A01 T02720162  RH  051%=      5-min Rain = 0
KVP1 101427Z 27002KT 27/16 A3028 RMK A01 T02720164  RH  052%=      5-min Rain = 0
KVP1 101428Z 26002KT 27/16 A3028 RMK A01 T02730164  RH  051%=      5-min Rain = 0
KVP1 101429Z 23002KT 27/16 A3028 RMK A01 T02740163  RH  051%=      5-min Rain = 0
KVP1 101430Z 23001KT 27/16 A3028 RMK A01 T02740164  RH  051%=      5-min Rain = 0
KVP1 101431Z 30002KT 27/16 A3028 RMK A01 T02740163  RH  051%=      5-min Rain = 0
KVP1 101432Z 30004KT 28/17 A3028 RMK A01 T02750165  RH  051%=      5-min Rain = 0
KVP1 101433Z 31005KT 28/17 A3028 RMK A01 T02770166  RH  051%=      5-min Rain = 0
KVP1 101434Z 27004KT 28/17 A3028 RMK A01 T02780165  RH  050%=      5-min Rain = 0
KVP1 101435Z 26005KT 28/17 A3028 RMK A01 T02780165  RH  050%=      5-min Rain = 0
KVP1 101436Z 26004KT 28/16 A3028 RMK A01 T02760162  RH  050%=      5-min Rain = 0
KVP1 101437Z 26002KT 27/16 A3028 RMK A01 T02730162  RH  051%=      5-min Rain = 0
KVP1 101438Z 22001KT 27/16 A3028 RMK A01 T02720162  RH  051%=      5-min Rain = 0
KVP1 101439Z 20002KT 27/16 A3028 RMK A01 T02730164  RH  051%=      5-min Rain = 0
KVP1 101440Z 24004KT 27/16 A3028 RMK A01 T02730163  RH  051%=      5-min Rain = 0
KVP1 101441Z 24006KT 28/16 A3028 RMK A01 T02750164  RH  051%=      5-min Rain = 0
KVP1 101442Z 24004KT 28/16 A3028 RMK A01 T02750163  RH  050%=      5-min Rain = 0
KVP1 101443Z 23002KT 27/16 A3028 RMK A01 T02740164  RH  051%=      5-min Rain = 0
KVP1 101444Z 23001KT 27/16 A3028 RMK A01 T02740164  RH  051%=      5-min Rain = 0
KVP1 101445Z 24004KT 27/17 A3028 RMK A01 T02740165  RH  051%=      5-min Rain = 0
KVP1 101446Z 24005KT 28/16 A3028 RMK A01 T02750164  RH  051%=      5-min Rain = 0
KVP1 101447Z 24004KT 28/16 A3028 RMK A01 T02750164  RH  051%=      5-min Rain = 0
KVP1 101448Z 24003KT 28/16 A3028 RMK A01 T02750164  RH  051%=      5-min Rain = 0
KVP1 101449Z 24003KT 28/16 A3028 RMK A01 T02750162  RH  050%=      5-min Rain = 0
KVP1 101450Z 22003KT 27/16 A3028 RMK A01 T02740163  RH  051%=      5-min Rain = 0
KVP1 101451Z 22001KT 27/17 A3028 RMK A01 T02730165  RH  052%=      5-min Rain = 0
KVP1 101452Z 23000KT 27/16 A3028 RMK A01 T02740163  RH  051%=      5-min Rain = 0
KVP1 101453Z 09001KT 28/16 A3028 RMK A01 T02760163  RH  050%=      5-min Rain = 0
KVP1 101454Z 01001KT 28/17 A3028 RMK A01 T02780165  RH  050%=      5-min Rain = 0
KVP1 101455Z 31002KT 28/16 A3028 RMK A01 T02790164  RH  049%=      5-min Rain = 0
KVP1 101456Z 32000KT 28/16 A3028 RMK A01 T02780162  RH  049%=      5-min Rain = 0
KVP1 101457Z 13000KT 28/16 A3028 RMK A01 T02770163  RH  050%=      5-min Rain = 0
KVP1 101458Z 27000KT 28/16 A3028 RMK A01 T02770164  RH  050%=      5-min Rain = 0
KVP1 101459Z 27005KT 28/17 A3028 RMK A01 T02770165  RH  050%=      5-min Rain = 0
KVP1 101500Z 26004KT 28/16 A3028 RMK A01 T02780163  RH  049%=      5-min Rain = 0
KVP1 101501Z 29002KT 28/16 A3028 RMK A01 T02790164  RH  050%=      5-min Rain = 0
KVP1 101502Z 27002KT 28/16 A3028 RMK A01 T02790163  RH  050%=      5-min Rain = 0
KVP1 101503Z 24005KT 28/16 A3027 RMK A01 T02790164  RH  049%=      5-min Rain = 0
KVP1 101504Z 21004KT 28/16 A3027 RMK A01 T02790163  RH  049%=      5-min Rain = 0
KVP1 101505Z 21002KT 28/16 A3027 RMK A01 T02800164  RH  049%=      5-min Rain = 0
KVP1 101506Z 21002KT 28/16 A3027 RMK A01 T02780163  RH  049%=      5-min Rain = 0
KVP1 101507Z 28002KT 28/16 A3027 RMK A01 T02780164  RH  050%=      5-min Rain = 0
KVP1 101508Z 25004KT 28/17 A3027 RMK A01 T02800165  RH  050%=      5-min Rain = 0
KVP1 101509Z 24002KT 28/16 A3027 RMK A01 T02830163  RH  048%=      5-min Rain = 0
KVP1 101510Z 24005KT 28/17 A3027 RMK A01 T02840165  RH  048%=      5-min Rain = 0
KVP1 101511Z 24005KT 28/16 A3027 RMK A01 T02840164  RH  048%=      5-min Rain = 0
KVP1 101512Z 24005KT 28/16 A3027 RMK A01 T02830164  RH  048%=      5-min Rain = 0
KVP1 101513Z 22003KT 28/16 A3027 RMK A01 T02820162  RH  048%=      5-min Rain = 0
KVP1 101514Z 17001KT 28/16 A3027 RMK A01 T02800162  RH  049%=      5-min Rain = 0
KVP1 101515Z 17001KT 28/16 A3027 RMK A01 T02800162  RH  049%=      5-min Rain = 0
KVP1 101516Z 22002KT 28/16 A3027 RMK A01 T02810163  RH  049%=      5-min Rain = 0
KVP1 101517Z 28001KT 28/16 A3027 RMK A01 T02840163  RH  048%=      5-min Rain = 0
KVP1 101518Z 24000KT 29/16 A3027 RMK A01 T02860164  RH  048%=      5-min Rain = 0
KVP1 101519Z 16000KT 29/16 A3027 RMK A01 T02870160  RH  046%=      5-min Rain = 0
KVP1 101520Z 22001KT 29/16 A3027 RMK A01 T02870161  RH  046%=      5-min Rain = 0
KVP1 101521Z 23001KT 29/16 A3027 RMK A01 T02870163  RH  047%=      5-min Rain = 0
KVP1 101522Z 24002KT 28/17 A3027 RMK A01 T02840165  RH  048%=      5-min Rain = 0
KVP1 101523Z 28001KT 28/17 A3027 RMK A01 T02830165  RH  049%=      5-min Rain = 0
KVP1 101524Z 21002KT 28/17 A3027 RMK A01 T02840166  RH  049%=      5-min Rain = 0
KVP1 101525Z 19002KT 29/17 A3027 RMK A01 T02860166  RH  048%=      5-min Rain = 0
KVP1 101526Z 19001KT 29/17 A3027 RMK A01 T02870166  RH  048%=      5-min Rain = 0
KVP1 101527Z 29002KT 29/17 A3027 RMK A01 T02880167  RH  048%=      5-min Rain = 0
KVP1 101528Z 21005KT 29/16 A3027 RMK A01 T02890164  RH  047%=      5-min Rain = 0
KVP1 101529Z 15005KT 29/16 A3027 RMK A01 T02910163  RH  046%=      5-min Rain = 0
KVP1 101530Z 16006KT 29/16 A3027 RMK A01 T02910161  RH  045%=      5-min Rain = 0
KVP1 101531Z 15006KT 29/16 A3027 RMK A01 T02910160  RH  045%=      5-min Rain = 0
KVP1 101532Z 17004KT 29/16 A3027 RMK A01 T02890159  RH  045%=      5-min Rain = 0
KVP1 101533Z 16000KT 29/16 A3027 RMK A01 T02870158  RH  045%=      5-min Rain = 0
KVP1 101534Z 14004KT 29/16 A3027 RMK A01 T02870161  RH  046%=      5-min Rain = 0
KVP1 101535Z 15005KT 29/16 A3027 RMK A01 T02880160  RH  046%=      5-min Rain = 0
KVP1 101536Z 17004KT 29/16 A3027 RMK A01 T02890160  RH  046%=      5-min Rain = 0
KVP1 101537Z 15003KT 29/16 A3027 RMK A01 T02900160  RH  045%=      5-min Rain = 0
KVP1 101538Z 10001KT 29/16 A3027 RMK A01 T02900158  RH  045%=      5-min Rain = 0
KVP1 101539Z 00000KT 29/16 A3027 RMK A01 T02880157  RH  045%=      5-min Rain = 0
KVP1 101540Z 00000KT 29/16 A3027 RMK A01 T02880158  RH  045%=      5-min Rain = 0
KVP1 101541Z 09000KT 29/16 A3027 RMK A01 T02880159  RH  046%=      5-min Rain = 0
KVP1 101542Z 14002KT 29/16 A3027 RMK A01 T02890161  RH  046%=      5-min Rain = 0
KVP1 101543Z 21004KT 29/16 A3027 RMK A01 T02910160  RH  045%=      5-min Rain = 0
KVP1 101544Z 22006KT 29/16 A3027 RMK A01 T02910162  RH  045%=      5-min Rain = 0
KVP1 101545Z 21004KT 29/16 A3027 RMK A01 T02910162  RH  045%=      5-min Rain = 0
KVP1 101546Z 21003KT 29/16 A3027 RMK A01 T02900162  RH  046%=      5-min Rain = 0
KVP1 101547Z 21007KT 29/16 A3026 RMK A01 T02910161  RH  045%=      5-min Rain = 0
KVP1 101548Z 20009KT 29/16 A3026 RMK A01 T02930159  RH  044%=      5-min Rain = 0
KVP1 101549Z 19006KT 29/16 A3026 RMK A01 T02930159  RH  044%=      5-min Rain = 0
KVP1 101550Z 19005KT 29/16 A3026 RMK A01 T02920160  RH  045%=      5-min Rain = 0
KVP1 101551Z 19008KT 29/16 A3026 RMK A01 T02920160  RH  045%=      5-min Rain = 0
KVP1 101552Z 19009KT 29/16 A3026 RMK A01 T02930159  RH  044%=      5-min Rain = 0
KVP1 101553Z 19006KT 29/16 A3027 RMK A01 T02920157  RH  044%=      5-min Rain = 0
KVP1 101554Z 19006KT 29/16 A3026 RMK A01 T02870157  RH  045%=      5-min Rain = 0
KVP1 101555Z 19004KT 29/16 A3026 RMK A01 T02850157  RH  046%=      5-min Rain = 0
KVP1 101556Z 18004KT 28/16 A3026 RMK A01 T02840157  RH  046%=      5-min Rain = 0
KVP1 101557Z 19003KT 28/16 A3026 RMK A01 T02840156  RH  046%=      5-min Rain = 0
KVP1 101558Z 19004KT 29/16 A3026 RMK A01 T02870158  RH  046%=      5-min Rain = 0
KVP1 101559Z 20006KT 29/16 A3026 RMK A01 T02900157  RH  045%=      5-min Rain = 0
KVP1 101600Z 19007KT 29/16 A3026 RMK A01 T02890158  RH  045%=      5-min Rain = 0
KVP1 101601Z 18006KT 29/16 A3026 RMK A01 T02910159  RH  045%=      5-min Rain = 0
KVP1 101602Z 19006KT 29/16 A3026 RMK A01 T02930157  RH  044%=      5-min Rain = 0
KVP1 101603Z 20004KT 29/16 A3026 RMK A01 T02930155  RH  043%=      5-min Rain = 0
KVP1 101604Z 22003KT 29/15 A3026 RMK A01 T02910153  RH  043%=      5-min Rain = 0
KVP1 101605Z 27001KT 29/15 A3026 RMK A01 T02890154  RH  044%=      5-min Rain = 0
KVP1 101606Z 25002KT 29/16 A3026 RMK A01 T02890156  RH  044%=      5-min Rain = 0
KVP1 101607Z 23006KT 29/16 A3026 RMK A01 T02910160  RH  045%=      5-min Rain = 0
KVP1 101608Z 21008KT 30/16 A3026 RMK A01 T02970159  RH  043%=      5-min Rain = 0
KVP1 101609Z 22004KT 30/16 A3026 RMK A01 T03010157  RH  042%=      5-min Rain = 0
KVP1 101610Z 20004KT 30/16 A3026 RMK A01 T03030159  RH  042%=      5-min Rain = 0
KVP1 101611Z 19007KT 30/16 A3026 RMK A01 T03030159  RH  042%=      5-min Rain = 0
KVP1 101612Z 19007KT 30/16 A3026 RMK A01 T03040157  RH  041%=      5-min Rain = 0
KVP1 101613Z 20006KT 30/16 A3026 RMK A01 T03020157  RH  042%=      5-min Rain = 0
KVP1 101614Z 21003KT 30/16 A3026 RMK A01 T02980155  RH  042%=      5-min Rain = 0
KVP1 101615Z 24004KT 30/15 A3026 RMK A01 T02960154  RH  042%=      5-min Rain = 0
KVP1 101616Z 22003KT 30/16 A3026 RMK A01 T02950156  RH  043%=      5-min Rain = 0
KVP1 101617Z 21003KT 30/16 A3026 RMK A01 T02950156  RH  043%=      5-min Rain = 0
KVP1 101618Z 23002KT 30/16 A3026 RMK A01 T02950159  RH  044%=      5-min Rain = 0
KVP1 101619Z 20005KT 29/16 A3026 RMK A01 T02940158  RH  044%=      5-min Rain = 0
KVP1 101620Z 20006KT 29/16 A3026 RMK A01 T02930157  RH  044%=      5-min Rain = 0
KVP1 101621Z 18006KT 29/15 A3026 RMK A01 T02900154  RH  043%=      5-min Rain = 0
KVP1 101622Z 18005KT 29/15 A3026 RMK A01 T02890154  RH  044%=      5-min Rain = 0
KVP1 101623Z 19005KT 29/16 A3026 RMK A01 T02910155  RH  044%=      5-min Rain = 0
KVP1 101624Z 17008KT 29/16 A3026 RMK A01 T02940156  RH  043%=      5-min Rain = 0
KVP1 101625Z 19006KT 30/16 A3026 RMK A01 T02960155  RH  042%=      5-min Rain = 0
KVP1 101626Z 20004KT 30/16 A3026 RMK A01 T02980155  RH  042%=      5-min Rain = 0
KVP1 101627Z 15004KT 30/16 A3026 RMK A01 T02980155  RH  042%=      5-min Rain = 0
KVP1 101628Z 14006KT 30/16 A3026 RMK A01 T02990158  RH  042%=      5-min Rain = 0
KVP1 101629Z 12006KT 30/16 A3026 RMK A01 T03030158  RH  042%=      5-min Rain = 0
KVP1 101630Z 13006KT 31/16 A3026 RMK A01 T03050156  RH  041%=      5-min Rain = 0
KVP1 101631Z 14009KT 31/16 A3026 RMK A01 T03050158  RH  041%=      5-min Rain = 0
KVP1 101632Z 13006KT 31/16 A3026 RMK A01 T03070157  RH  041%=      5-min Rain = 0
KVP1 101633Z 13006KT 31/16 A3026 RMK A01 T03080160  RH  041%=      5-min Rain = 0
KVP1 101634Z 12008KT 32/16 A3026 RMK A01 T03150159  RH  039%=      5-min Rain = 0
KVP1 101635Z 12008KT 31/16 A3026 RMK A01 T03130156  RH  039%=      5-min Rain = 0
KVP1 101636Z 12006KT 31/16 A3026 RMK A01 T03090156  RH  040%=      5-min Rain = 0
KVP1 101637Z 15009KT 31/16 A3026 RMK A01 T03080159  RH  041%=      5-min Rain = 0
KVP1 101638Z 11007KT 31/16 A3026 RMK A01 T03090158  RH  040%=      5-min Rain = 0
KVP1 101639Z 10007KT 31/16 A3026 RMK A01 T03090157  RH  040%=      5-min Rain = 0
KVP1 101640Z 12005KT 31/16 A3026 RMK A01 T03070157  RH  040%=      5-min Rain = 0
KVP1 101641Z 13007KT 30/16 A3026 RMK A01 T03040155  RH  040%=      5-min Rain = 0
KVP1 101642Z 13010KT 30/16 A3026 RMK A01 T03030155  RH  041%=      5-min Rain = 0
KVP1 101643Z 12008KT 30/15 A3026 RMK A01 T03040154  RH  040%=      5-min Rain = 0
KVP1 101644Z 12009KT 31/15 A3026 RMK A01 T03050154  RH  040%=      5-min Rain = 0
KVP1 101645Z 15010KT 31/16 A3026 RMK A01 T03060158  RH  041%=      5-min Rain = 0
KVP1 101646Z 16010KT 31/16 A3026 RMK A01 T03080158  RH  040%=      5-min Rain = 0
KVP1 101647Z 16006KT 31/16 A3026 RMK A01 T03080156  RH  040%=      5-min Rain = 0
KVP1 101648Z 16005KT 31/15 A3026 RMK A01 T03070152  RH  039%=      5-min Rain = 0
KVP1 101649Z 13002KT 30/15 A3026 RMK A01 T03040152  RH  040%=      5-min Rain = 0
KVP1 101650Z 12005KT 30/15 A3026 RMK A01 T03040153  RH  040%=      5-min Rain = 0
KVP1 101651Z 16005KT 30/15 A3025 RMK A01 T03040152  RH  040%=      5-min Rain = 0
KVP1 101652Z 17003KT 30/15 A3025 RMK A01 T03040153  RH  040%=      5-min Rain = 0
KVP1 101653Z 14006KT 31/16 A3025 RMK A01 T03060156  RH  040%=      5-min Rain = 0
KVP1 101654Z 10003KT 31/15 A3025 RMK A01 T03090153  RH  039%=      5-min Rain = 0
KVP1 101655Z 13002KT 31/15 A3025 RMK A01 T03070153  RH  039%=      5-min Rain = 0
KVP1 101656Z 14007KT 31/16 A3025 RMK A01 T03080157  RH  040%=      5-min Rain = 0
KVP1 101657Z 13009G14KT 31/16 A3025 RMK A01 T03130163  RH  040%=      5-min Rain = 0
KVP1 101658Z 12008KT 32/16 A3025 RMK A01 T03170157  RH  038%=      5-min Rain = 0
KVP1 101659Z 11003KT 31/15 A3025 RMK A01 T03130153  RH  038%=      5-min Rain = 0
KVP1 101700Z 09005KT 31/16 A3025 RMK A01 T03090156  RH  040%=      5-min Rain = 0
KVP1 101701Z 09005KT 31/16 A3025 RMK A01 T03100155  RH  039%=      5-min Rain = 0
KVP1 101702Z 07003KT 31/16 A3025 RMK A01 T03110156  RH  039%=      5-min Rain = 0
KVP1 101703Z 16007G13KT 31/16 A3025 RMK A01 T03130158  RH  039%=      5-min Rain = 0
KVP1 101704Z 17010KT 32/16 A3025 RMK A01 T03160158  RH  039%=      5-min Rain = 0
KVP1 101705Z 16008KT 31/16 A3025 RMK A01 T03140156  RH  039%=      5-min Rain = 0
KVP1 101706Z 17007KT 31/16 A3025 RMK A01 T03130158  RH  039%=      5-min Rain = 0
KVP1 101707Z 17007KT 32/16 A3025 RMK A01 T03150155  RH  038%=      5-min Rain = 0
KVP1 101708Z 18008KT 31/15 A3025 RMK A01 T03130152  RH  038%=      5-min Rain = 0
KVP1 101709Z 18006KT 31/15 A3025 RMK A01 T03110152  RH  038%=      5-min Rain = 0
KVP1 101710Z 19006KT 31/15 A3025 RMK A01 T03110150  RH  038%=      5-min Rain = 0
KVP1 101711Z 18004KT 31/15 A3025 RMK A01 T03110151  RH  038%=      5-min Rain = 0
KVP1 101712Z 20005KT 31/15 A3025 RMK A01 T03110148  RH  037%=      5-min Rain = 0
KVP1 101713Z 19005KT 31/15 A3025 RMK A01 T03100153  RH  038%=      5-min Rain = 0
KVP1 101714Z 20006KT 31/15 A3025 RMK A01 T03110152  RH  038%=      5-min Rain = 0
KVP1 101715Z 14009KT 31/15 A3025 RMK A01 T03110152  RH  038%=      5-min Rain = 0
KVP1 101716Z 10006KT 31/15 A3025 RMK A01 T03110151  RH  038%=      5-min Rain = 0
KVP1 101717Z 11007KT 31/15 A3025 RMK A01 T03100153  RH  039%=      5-min Rain = 0
KVP1 101718Z 14010KT 31/16 A3025 RMK A01 T03100155  RH  039%=      5-min Rain = 0
KVP1 101719Z 14007KT 32/15 A3025 RMK A01 T03160150  RH  037%=      5-min Rain = 0
KVP1 101720Z 15007KT 32/15 A3025 RMK A01 T03150148  RH  036%=      5-min Rain = 0
KVP1 101721Z 18007KT 31/15 A3025 RMK A01 T03140150  RH  037%=      5-min Rain = 0
KVP1 101722Z 16008KT 32/15 A3025 RMK A01 T03150148  RH  037%=      5-min Rain = 0
KVP1 101723Z 16005KT 32/15 A3025 RMK A01 T03150150  RH  037%=      5-min Rain = 0
KVP1 101724Z 16000KT 31/15 A3024 RMK A01 T03130146  RH  036%=      5-min Rain = 0
KVP1 101725Z 17002KT 31/15 A3024 RMK A01 T03100146  RH  037%=      5-min Rain = 0
KVP1 101726Z 13008KT 31/15 A3024 RMK A01 T03100152  RH  038%=      5-min Rain = 0
KVP1 101727Z 13007KT 31/15 A3024 RMK A01 T03110153  RH  038%=      5-min Rain = 0
KVP1 101728Z 14008KT 31/15 A3024 RMK A01 T03110153  RH  039%=      5-min Rain = 0
KVP1 101729Z 13006KT 31/15 A3024 RMK A01 T03120153  RH  038%=      5-min Rain = 0
KVP1 101730Z 13009KT 31/16 A3024 RMK A01 T03140155  RH  038%=      5-min Rain = 0
KVP1 101731Z 12010KT 32/15 A3024 RMK A01 T03170152  RH  037%=      5-min Rain = 0
KVP1 101732Z 12009G14KT 32/15 A3024 RMK A01 T03160152  RH  037%=      5-min Rain = 0
KVP1 101733Z 12007KT 32/15 A3024 RMK A01 T03170150  RH  036%=      5-min Rain = 0
KVP1 101734Z 13004KT 32/15 A3024 RMK A01 T03170148  RH  036%=      5-min Rain = 0
KVP1 101735Z 11003KT 32/15 A3024 RMK A01 T03170148  RH  036%=      5-min Rain = 0
KVP1 101736Z 12004KT 31/15 A3024 RMK A01 T03130147  RH  037%=      5-min Rain = 0
KVP1 101737Z 15004KT 31/15 A3024 RMK A01 T03070149  RH  038%=      5-min Rain = 0
KVP1 101738Z 18007KT 31/15 A3024 RMK A01 T03070147  RH  038%=      5-min Rain = 0
KVP1 101739Z 18007KT 31/15 A3024 RMK A01 T03090146  RH  037%=      5-min Rain = 0
KVP1 101740Z 19007KT 31/15 A3024 RMK A01 T03090147  RH  037%=      5-min Rain = 0
KVP1 101741Z 17005KT 31/15 A3024 RMK A01 T03110147  RH  037%=      5-min Rain = 0
KVP1 101742Z 18004KT 31/15 A3024 RMK A01 T03120149  RH  037%=      5-min Rain = 0
KVP1 101743Z 13007KT 31/15 A3024 RMK A01 T03120151  RH  038%=      5-min Rain = 0
KVP1 101744Z 12007KT 31/15 A3024 RMK A01 T03140151  RH  037%=      5-min Rain = 0
KVP1 101745Z 14004KT 32/15 A3024 RMK A01 T03170150  RH  036%=      5-min Rain = 0
KVP1 101746Z 11002KT 32/15 A3024 RMK A01 T03180150  RH  036%=      5-min Rain = 0
KVP1 101747Z 15002KT 32/15 A3024 RMK A01 T03180151  RH  036%=      5-min Rain = 0
KVP1 101748Z 16003KT 32/15 A3024 RMK A01 T03180149  RH  036%=      5-min Rain = 0
KVP1 101749Z 16003KT 32/15 A3024 RMK A01 T03160150  RH  037%=      5-min Rain = 0
KVP1 101750Z 17006KT 32/15 A3024 RMK A01 T03150153  RH  038%=      5-min Rain = 0
KVP1 101751Z 16007KT 32/15 A3024 RMK A01 T03150153  RH  037%=      5-min Rain = 0
KVP1 101752Z 20004KT 31/15 A3024 RMK A01 T03130152  RH  038%=      5-min Rain = 0
KVP1 101753Z 17005KT 31/16 A3024 RMK A01 T03100155  RH  039%=      5-min Rain = 0
KVP1 101754Z 17006KT 31/15 A3024 RMK A01 T03120153  RH  038%=      5-min Rain = 0
KVP1 101755Z 16005KT 31/15 A3024 RMK A01 T03090152  RH  039%=      5-min Rain = 0
KVP1 101756Z 14007G13KT 31/15 A3023 RMK A01 T03070153  RH  039%=      5-min Rain = 0
KVP1 101757Z 14011KT 31/15 A3024 RMK A01 T03070151  RH  039%=      5-min Rain = 0
KVP1 101758Z 14005KT 31/15 A3024 RMK A01 T03060151  RH  039%=      5-min Rain = 0
KVP1 101759Z 14003KT 31/15 A3024 RMK A01 T03060153  RH  040%=      5-min Rain = 0
KVP1 101800Z 17005KT 31/15 A3023 RMK A01 T03080152  RH  039%=      5-min Rain = 0
KVP1 101801Z 18003KT 31/15 A3023 RMK A01 T03080150  RH  039%=      5-min Rain = 0
KVP1 101802Z 17000KT 30/15 A3023 RMK A01 T03040149  RH  039%=      5-min Rain = 0
KVP1 101803Z 18000KT 30/15 A3023 RMK A01 T03020149  RH  039%=      5-min Rain = 0
KVP1 101804Z 18001KT 30/15 A3023 RMK A01 T03020149  RH  039%=      5-min Rain = 0
KVP1 101805Z 27002KT 30/15 A3023 RMK A01 T03010149  RH  040%=      5-min Rain = 0
KVP1 101806Z 26003KT 30/15 A3023 RMK A01 T03010151  RH  040%=      5-min Rain = 0
KVP1 101807Z 26001KT 30/15 A3023 RMK A01 T03000150  RH  040%=      5-min Rain = 0
KVP1 101808Z 15001KT 30/15 A3023 RMK A01 T02990150  RH  040%=      5-min Rain = 0
KVP1 101809Z 15000KT 30/15 A3023 RMK A01 T02990150  RH  040%=      5-min Rain = 0
KVP1 101810Z 10005KT 30/15 A3023 RMK A01 T03030151  RH  040%=      5-min Rain = 0
KVP1 101811Z 10002KT 31/15 A3023 RMK A01 T03090153  RH  039%=      5-min Rain = 0
KVP1 101812Z 16005G10KT 32/15 A3023 RMK A01 T03150152  RH  037%=      5-min Rain = 0
KVP1 101813Z 19008KT 32/15 A3023 RMK A01 T03210154  RH  036%=      5-min Rain = 0
KVP1 101814Z 20008KT 32/15 A3023 RMK A01 T03230150  RH  035%=      5-min Rain = 0
KVP1 101815Z 14011KT 32/15 A3023 RMK A01 T03210147  RH  035%=      5-min Rain = 0
KVP1 101816Z 15010KT 32/15 A3023 RMK A01 T03220146  RH  034%=      5-min Rain = 0
KVP1 101817Z 14004KT 32/15 A3023 RMK A01 T03230145  RH  034%=      5-min Rain = 0
KVP1 101818Z 15007KT 32/15 A3023 RMK A01 T03240146  RH  034%=      5-min Rain = 0
KVP1 101819Z 14002KT 32/14 A3023 RMK A01 T03240140  RH  033%=      5-min Rain = 0
KVP1 101820Z 10002KT 32/14 A3022 RMK A01 T03220137  RH  033%=      5-min Rain = 0
KVP1 101821Z 06001KT 32/14 A3022 RMK A01 T03180139  RH  034%=      5-min Rain = 0
KVP1 101822Z 19003KT 32/14 A3022 RMK A01 T03170140  RH  034%=      5-min Rain = 0
KVP1 101823Z 15010KT 32/15 A3022 RMK A01 T03200145  RH  035%=      5-min Rain = 0
KVP1 101824Z 17008KT 33/15 A3022 RMK A01 T03260145  RH  034%=      5-min Rain = 0
KVP1 101825Z 18005KT 33/14 A3022 RMK A01 T03280144  RH  033%=      5-min Rain = 0
KVP1 101826Z 17005KT 32/14 A3022 RMK A01 T03240144  RH  034%=      5-min Rain = 0
KVP1 101827Z 18001KT 32/14 A3022 RMK A01 T03210143  RH  034%=      5-min Rain = 0
KVP1 101828Z 23003KT 32/15 A3022 RMK A01 T03210145  RH  034%=      5-min Rain = 0
KVP1 101829Z 21005KT 32/15 A3022 RMK A01 T03210145  RH  034%=      5-min Rain = 0
KVP1 101830Z 20003KT 32/15 A3022 RMK A01 T03200147  RH  035%=      5-min Rain = 0
KVP1 101831Z 10005KT 32/14 A3022 RMK A01 T03190144  RH  035%=      5-min Rain = 0
KVP1 101832Z 11005KT 32/14 A3022 RMK A01 T03180143  RH  034%=      5-min Rain = 0
KVP1 101833Z 11008KT 32/15 A3022 RMK A01 T03210146  RH  035%=      5-min Rain = 0
KVP1 101834Z 11007KT 32/15 A3022 RMK A01 T03240146  RH  034%=      5-min Rain = 0
KVP1 101835Z 13009KT 33/15 A3022 RMK A01 T03280150  RH  034%=      5-min Rain = 0
KVP1 101836Z 13009KT 33/15 A3022 RMK A01 T03290150  RH  034%=      5-min Rain = 0
KVP1 101837Z 15009KT 33/15 A3022 RMK A01 T03280150  RH  034%=      5-min Rain = 0
KVP1 101838Z 14009KT 32/15 A3022 RMK A01 T03220148  RH  035%=      5-min Rain = 0
KVP1 101839Z 14007KT 32/15 A3022 RMK A01 T03180147  RH  036%=      5-min Rain = 0
KVP1 101840Z 14007KT 32/15 A3022 RMK A01 T03150147  RH  036%=      5-min Rain = 0
KVP1 101841Z 13008KT 31/15 A3022 RMK A01 T03140147  RH  036%=      5-min Rain = 0
KVP1 101842Z 14007KT 32/15 A3022 RMK A01 T03180150  RH  036%=      5-min Rain = 0
KVP1 101843Z 15009KT 32/15 A3021 RMK A01 T03230150  RH  035%=      5-min Rain = 0
KVP1 101844Z 14008KT 33/15 A3022 RMK A01 T03250147  RH  034%=      5-min Rain = 0
KVP1 101845Z 14007KT 32/15 A3021 RMK A01 T03230148  RH  035%=      5-min Rain = 0
KVP1 101846Z 12006KT 32/15 A3021 RMK A01 T03220148  RH  035%=      5-min Rain = 0
KVP1 101847Z 16006KT 32/15 A3021 RMK A01 T03210149  RH  035%=      5-min Rain = 0
KVP1 101848Z 17005KT 32/15 A3021 RMK A01 T03210149  RH  035%=      5-min Rain = 0
KVP1 101849Z 13011KT 32/15 A3021 RMK A01 T03210152  RH  036%=      5-min Rain = 0
KVP1 101850Z 13013KT 32/15 A3021 RMK A01 T03240152  RH  035%=      5-min Rain = 0
KVP1 101851Z 14010G15KT 33/15 A3021 RMK A01 T03290152  RH  035%=      5-min Rain = 0
KVP1 101852Z 14008KT 33/15 A3021 RMK A01 T03280150  RH  034%=      5-min Rain = 0
KVP1 101853Z 13010KT 33/15 A3021 RMK A01 T03260152  RH  035%=      5-min Rain = 0
KVP1 101854Z 12008KT 33/15 A3021 RMK A01 T03260150  RH  035%=      5-min Rain = 0
KVP1 101855Z 13008KT 32/15 A3021 RMK A01 T03210148  RH  035%=      5-min Rain = 0
KVP1 101856Z 11009KT 32/15 A3021 RMK A01 T03170147  RH  036%=      5-min Rain = 0
KVP1 101857Z 10005KT 31/15 A3021 RMK A01 T03140146  RH  036%=      5-min Rain = 0
KVP1 101858Z 11003KT 31/15 A3021 RMK A01 T03120145  RH  036%=      5-min Rain = 0
KVP1 101859Z 10009KT 31/15 A3021 RMK A01 T03100146  RH  037%=      5-min Rain = 0
KVP1 101900Z 10009KT 31/15 A3021 RMK A01 T03100147  RH  037%=      5-min Rain = 0
KVP1 101901Z 08009G14KT 31/15 A3021 RMK A01 T03100148  RH  037%=      5-min Rain = 0
KVP1 101902Z 09010KT 31/15 A3021 RMK A01 T03120151  RH  038%=      5-min Rain = 0
KVP1 101903Z 10012KT 32/15 A3021 RMK A01 T03170151  RH  037%=      5-min Rain = 0
KVP1 101904Z 11010KT 32/15 A3021 RMK A01 T03210151  RH  036%=      5-min Rain = 0
KVP1 101905Z 09009KT 32/15 A302 RMK A01 T03240150  RH  035%=      5-min Rain = 0
KVP1 101906Z 07007KT 32/15 A302 RMK A01 T03220148  RH  035%=      5-min Rain = 0
KVP1 101907Z 09004KT 32/15 A302 RMK A01 T03160148  RH  036%=      5-min Rain = 0
KVP1 101908Z 13005KT 31/15 A302 RMK A01 T03120147  RH  037%=      5-min Rain = 0
KVP1 101909Z 15007KT 31/15 A302 RMK A01 T03110149  RH  038%=      5-min Rain = 0
KVP1 101910Z 11006KT 31/15 A302 RMK A01 T03110151  RH  038%=      5-min Rain = 0
KVP1 101911Z 09011KT 31/15 A302 RMK A01 T03130152  RH  038%=      5-min Rain = 0
KVP1 101912Z 09011G16KT 32/15 A302 RMK A01 T03150151  RH  037%=      5-min Rain = 0
KVP1 101913Z 08009KT 31/15 A302 RMK A01 T03130151  RH  038%=      5-min Rain = 0
KVP1 101914Z 09006KT 31/15 A302 RMK A01 T03120152  RH  038%=      5-min Rain = 0
KVP1 101915Z 08012KT 31/15 A302 RMK A01 T03130151  RH  038%=      5-min Rain = 0
KVP1 101916Z 12012KT 31/15 A302 RMK A01 T03130151  RH  037%=      5-min Rain = 0
KVP1 101917Z 12010KT 32/15 A302 RMK A01 T03170152  RH  037%=      5-min Rain = 0
KVP1 101918Z 12013KT 32/15 A302 RMK A01 T03220152  RH  036%=      5-min Rain = 0
KVP1 101919Z 10012KT 33/15 A302 RMK A01 T03250151  RH  035%=      5-min Rain = 0
KVP1 101920Z 10012G17KT 33/15 A302 RMK A01 T03250152  RH  035%=      5-min Rain = 0
KVP1 101921Z 10013KT 33/15 A302 RMK A01 T03260152  RH  035%=      5-min Rain = 0
KVP1 101922Z 12008G13KT 33/15 A302 RMK A01 T03260154  RH  035%=      5-min Rain = 0
KVP1 101923Z 10011KT 33/15 A3019 RMK A01 T03300152  RH  034%=      5-min Rain = 0
KVP1 101924Z 08009KT 33/15 A3019 RMK A01 T03310152  RH  034%=      5-min Rain = 0
KVP1 101925Z 07008KT 33/15 A3019 RMK A01 T03260151  RH  035%=      5-min Rain = 0
KVP1 101926Z 09010KT 32/15 A3019 RMK A01 T03220149  RH  035%=      5-min Rain = 0
KVP1 101927Z 09013KT 32/15 A3019 RMK A01 T03200149  RH  035%=      5-min Rain = 0
KVP1 101928Z 08011KT 32/15 A3019 RMK A01 T03190147  RH  035%=      5-min Rain = 0
KVP1 101929Z 08008KT 32/15 A3019 RMK A01 T03150146  RH  036%=      5-min Rain = 0
KVP1 101930Z 08006KT 31/15 A3019 RMK A01 T03120145  RH  036%=      5-min Rain = 0
KVP1 101931Z 11003KT 31/15 A3019 RMK A01 T03090145  RH  037%=      5-min Rain = 0
KVP1 101932Z 11006KT 31/15 A3019 RMK A01 T03080145  RH  037%=      5-min Rain = 0
KVP1 101933Z 11012KT 31/15 A3019 RMK A01 T03090147  RH  037%=      5-min Rain = 0
KVP1 101934Z 11012KT 31/15 A3019 RMK A01 T03100146  RH  037%=      5-min Rain = 0
KVP1 101935Z 10011KT 31/15 A3019 RMK A01 T03100147  RH  037%=      5-min Rain = 0
KVP1 101936Z 09010KT 31/15 A3019 RMK A01 T03090146  RH  037%=      5-min Rain = 0
KVP1 101937Z 07009KT 31/15 A3019 RMK A01 T03090147  RH  037%=      5-min Rain = 0
KVP1 101938Z 07008KT 31/15 A3019 RMK A01 T03090148  RH  038%=      5-min Rain = 0
KVP1 101939Z 09008KT 31/15 A3019 RMK A01 T03120150  RH  037%=      5-min Rain = 0
KVP1 101940Z 10009KT 32/15 A3019 RMK A01 T03150150  RH  037%=      5-min Rain = 0
KVP1 101941Z 08006KT 32/15 A3019 RMK A01 T03160149  RH  036%=      5-min Rain = 0
KVP1 101942Z 06003KT 31/15 A3019 RMK A01 T03140149  RH  037%=      5-min Rain = 0
KVP1 101943Z 09007KT 32/15 A3019 RMK A01 T03160149  RH  037%=      5-min Rain = 0
KVP1 101944Z 10007KT 32/15 A3018 RMK A01 T03210148  RH  035%=      5-min Rain = 0
KVP1 101945Z 11005G10KT 33/15 A3018 RMK A01 T03250145  RH  034%=      5-min Rain = 0
KVP1 101946Z 11001KT 32/14 A3018 RMK A01 T03210143  RH  034%=      5-min Rain = 0
KVP1 101947Z 14005KT 32/15 A3018 RMK A01 T03200148  RH  035%=      5-min Rain = 0
KVP1 101948Z 17006KT 32/15 A3018 RMK A01 T03180147  RH  036%=      5-min Rain = 0
KVP1 101949Z 11006KT 32/15 A3018 RMK A01 T03160149  RH  036%=      5-min Rain = 0
KVP1 101950Z 10011KT 32/15 A3018 RMK A01 T03150150  RH  037%=      5-min Rain = 0
KVP1 101951Z 10010KT 32/15 A3018 RMK A01 T03160149  RH  036%=      5-min Rain = 0
KVP1 101952Z 12009KT 31/15 A3018 RMK A01 T03130148  RH  037%=      5-min Rain = 0
KVP1 101953Z 11010KT 31/15 A3018 RMK A01 T03130148  RH  037%=      5-min Rain = 0
KVP1 101954Z 10010KT 31/15 A3018 RMK A01 T03130148  RH  037%=      5-min Rain = 0
KVP1 101955Z 10010KT 31/15 A3018 RMK A01 T03120148  RH  037%=      5-min Rain = 0
KVP1 101956Z 10010KT 31/15 A3018 RMK A01 T03120148  RH  037%=      5-min Rain = 0
KVP1 101957Z 11009KT 31/15 A3018 RMK A01 T03130147  RH  037%=      5-min Rain = 0
KVP1 101958Z 11005KT 31/15 A3018 RMK A01 T03110147  RH  037%=      5-min Rain = 0
KVP1 101959Z 10007KT 31/15 A3018 RMK A01 T03100147  RH  037%=      5-min Rain = 0
KVP1 102000Z 09005KT 31/15 A3018 RMK A01 T03080146  RH  037%=      5-min Rain = 0
KVP1 102001Z 10004KT 31/15 A3018 RMK A01 T03080147  RH  038%=      5-min Rain = 0
KVP1 102002Z 09005KT 31/15 A3018 RMK A01 T03080146  RH  037%=      5-min Rain = 0
KVP1 102003Z 08008KT 31/15 A3018 RMK A01 T03090148  RH  037%=      5-min Rain = 0
KVP1 102004Z 09007KT 31/15 A3018 RMK A01 T03100147  RH  037%=      5-min Rain = 0
KVP1 102005Z 10007G13KT 31/15 A3018 RMK A01 T03110147  RH  037%=      5-min Rain = 0
KVP1 102006Z 12008KT 31/15 A3018 RMK A01 T03120147  RH  037%=      5-min Rain = 0
KVP1 102007Z 12009KT 31/15 A3018 RMK A01 T03120149  RH  037%=      5-min Rain = 0
KVP1 102008Z 11006KT 31/15 A3018 RMK A01 T03120146  RH  037%=      5-min Rain = 0
KVP1 102009Z 12003KT 31/15 A3018 RMK A01 T03090145  RH  037%=      5-min Rain = 0
KVP1 102010Z 08002KT 31/15 A3017 RMK A01 T03070147  RH  038%=      5-min Rain = 0
KVP1 102011Z 08004KT 31/15 A3017 RMK A01 T03080149  RH  038%=      5-min Rain = 0
KVP1 102012Z 08003KT 31/15 A3017 RMK A01 T03080146  RH  037%=      5-min Rain = 0
KVP1 102013Z 10004KT 31/15 A3017 RMK A01 T03080146  RH  038%=      5-min Rain = 0
KVP1 102014Z 10006KT 31/15 A3017 RMK A01 T03080148  RH  038%=      5-min Rain = 0
KVP1 102015Z 11008KT 31/15 A3017 RMK A01 T03100149  RH  038%=      5-min Rain = 0
KVP1 102016Z 11010KT 31/15 A3017 RMK A01 T03110148  RH  037%=      5-min Rain = 0
KVP1 102017Z 12010KT 31/15 A3017 RMK A01 T03110147  RH  037%=      5-min Rain = 0
KVP1 102018Z 10010KT 31/15 A3017 RMK A01 T03100147  RH  037%=      5-min Rain = 0
KVP1 102019Z 10010KT 31/15 A3017 RMK A01 T03110146  RH  037%=      5-min Rain = 0
KVP1 102020Z 09012KT 31/14 A3017 RMK A01 T03110144  RH  036%=      5-min Rain = 0
KVP1 102021Z 09009KT 31/15 A3017 RMK A01 T03100145  RH  037%=      5-min Rain = 0
KVP1 102022Z 09009KT 31/15 A3017 RMK A01 T03090146  RH  037%=      5-min Rain = 0
KVP1 102023Z 09007KT 31/15 A3017 RMK A01 T03100147  RH  037%=      5-min Rain = 0
KVP1 102024Z 08010KT 31/15 A3017 RMK A01 T03110147  RH  037%=      5-min Rain = 0
KVP1 102025Z 08009KT 31/15 A3017 RMK A01 T03110147  RH  037%=      5-min Rain = 0
KVP1 102026Z 08009KT 31/15 A3017 RMK A01 T03100149  RH  038%=      5-min Rain = 0
KVP1 102027Z 08009KT 31/15 A3016 RMK A01 T03100150  RH  038%=      5-min Rain = 0
KVP1 102028Z 10011KT 31/15 A3016 RMK A01 T03100150  RH  038%=      5-min Rain = 0
KVP1 102029Z 11010KT 31/15 A3017 RMK A01 T03110149  RH  037%=      5-min Rain = 0
KVP1 102030Z 11009KT 31/15 A3017 RMK A01 T03120150  RH  037%=      5-min Rain = 0
KVP1 102031Z 11011KT 31/15 A3016 RMK A01 T03130150  RH  037%=      5-min Rain = 0
KVP1 102032Z 13010KT 31/15 A3016 RMK A01 T03130153  RH  038%=      5-min Rain = 0
KVP1 102033Z 13010KT 31/16 A3016 RMK A01 T03130155  RH  039%=      5-min Rain = 0
KVP1 102034Z 12013G23KT 31/15 A3016 RMK A01 T03130153  RH  038%=      5-min Rain = 0
KVP1 102035Z 09011G16KT 31/15 A3016 RMK A01 T03130151  RH  038%=      5-min Rain = 0
KVP1 102036Z 08012KT 31/15 A3016 RMK A01 T03120152  RH  038%=      5-min Rain = 0
KVP1 102037Z 08013KT 31/16 A3016 RMK A01 T03090157  RH  040%=      5-min Rain = 0
KVP1 102038Z 07014KT 31/16 A3016 RMK A01 T03060156  RH  040%=      5-min Rain = 0
KVP1 102039Z 07014KT 30/16 A3016 RMK A01 T03030158  RH  042%=      5-min Rain = 0
KVP1 102040Z 07014KT 30/16 A3016 RMK A01 T02990158  RH  042%=      5-min Rain = 0
KVP1 102041Z 07013G18KT 30/16 A3016 RMK A01 T02970157  RH  043%=      5-min Rain = 0
KVP1 102042Z 07012KT 30/16 A3016 RMK A01 T02970158  RH  043%=      5-min Rain = 0
KVP1 102043Z 07012KT 30/16 A3016 RMK A01 T02970157  RH  043%=      5-min Rain = 0
KVP1 102044Z 06013KT 30/16 A3016 RMK A01 T02980158  RH  043%=      5-min Rain = 0
KVP1 102045Z 07010KT 30/16 A3016 RMK A01 T02960158  RH  043%=      5-min Rain = 0
KVP1 102046Z 08009KT 30/16 A3016 RMK A01 T02950162  RH  045%=      5-min Rain = 0
KVP1 102047Z 08010KT 30/16 A3016 RMK A01 T02960159  RH  043%=      5-min Rain = 0
KVP1 102048Z 08010KT 30/16 A3016 RMK A01 T02990157  RH  042%=      5-min Rain = 0
KVP1 102049Z 07009KT 30/16 A3016 RMK A01 T03000157  RH  042%=      5-min Rain = 0
KVP1 102050Z 07009KT 30/16 A3016 RMK A01 T03010158  RH  042%=      5-min Rain = 0
KVP1 102051Z 07010KT 30/16 A3016 RMK A01 T03020157  RH  041%=      5-min Rain = 0
KVP1 102052Z 06011KT 30/16 A3016 RMK A01 T03020156  RH  041%=      5-min Rain = 0
KVP1 102053Z 07012KT 30/16 A3016 RMK A01 T03010158  RH  042%=      5-min Rain = 0
KVP1 102054Z 08011KT 30/16 A3016 RMK A01 T03000161  RH  043%=      5-min Rain = 0
KVP1 102055Z 08010KT 30/16 A3016 RMK A01 T02990161  RH  043%=      5-min Rain = 0
KVP1 102056Z 07012KT 30/16 A3016 RMK A01 T03000158  RH  042%=      5-min Rain = 0
KVP1 102057Z 07011KT 30/16 A3016 RMK A01 T03000157  RH  042%=      5-min Rain = 0
KVP1 102058Z 07009KT 30/16 A3016 RMK A01 T03000159  RH  043%=      5-min Rain = 0
KVP1 102059Z 07010KT 30/16 A3016 RMK A01 T02990160  RH  043%=      5-min Rain = 0
KVP1 102100Z 07011KT 30/16 A3016 RMK A01 T02990158  RH  042%=      5-min Rain = 0
KVP1 102101Z 07011KT 30/16 A3016 RMK A01 T02990158  RH  042%=      5-min Rain = 0
KVP1 102102Z 07012KT 30/16 A3016 RMK A01 T03000157  RH  042%=      5-min Rain = 0
KVP1 102103Z 07011KT 30/16 A3016 RMK A01 T03010157  RH  042%=      5-min Rain = 0
KVP1 102104Z 07010KT 30/16 A3015 RMK A01 T03010157  RH  042%=      5-min Rain = 0
KVP1 102105Z 06010KT 30/16 A3015 RMK A01 T03010159  RH  042%=      5-min Rain = 0
KVP1 102106Z 06010KT 30/16 A3015 RMK A01 T03020161  RH  043%=      5-min Rain = 0
KVP1 102107Z 06007KT 30/16 A3015 RMK A01 T03030162  RH  043%=      5-min Rain = 0
KVP1 102108Z 06007KT 30/16 A3015 RMK A01 T03020161  RH  043%=      5-min Rain = 0
KVP1 102109Z 06008KT 30/16 A3015 RMK A01 T03010159  RH  042%=      5-min Rain = 0
KVP1 102110Z 07009KT 30/16 A3015 RMK A01 T03010157  RH  042%=      5-min Rain = 0
KVP1 102111Z 06010KT 30/16 A3015 RMK A01 T03040155  RH  041%=      5-min Rain = 0
KVP1 102112Z 06009KT 30/16 A3015 RMK A01 T03040156  RH  041%=      5-min Rain = 0
KVP1 102113Z 08011KT 30/15 A3015 RMK A01 T03030154  RH  040%=      5-min Rain = 0
KVP1 102114Z 08009KT 30/15 A3015 RMK A01 T03030153  RH  040%=      5-min Rain = 0
KVP1 102115Z 08010KT 30/15 A3015 RMK A01 T03030154  RH  041%=      5-min Rain = 0
KVP1 102116Z 07008KT 30/15 A3015 RMK A01 T03020153  RH  040%=      5-min Rain = 0
KVP1 102117Z 08007KT 30/15 A3015 RMK A01 T03020154  RH  041%=      5-min Rain = 0
KVP1 102118Z 09007KT 30/16 A3015 RMK A01 T03020155  RH  041%=      5-min Rain = 0
KVP1 102119Z 07008KT 30/16 A3015 RMK A01 T03020157  RH  041%=      5-min Rain = 0
KVP1 102120Z 07008KT 30/15 A3015 RMK A01 T03030154  RH  040%=      5-min Rain = 0
KVP1 102121Z 07011KT 30/16 A3015 RMK A01 T03040157  RH  041%=      5-min Rain = 0
KVP1 102122Z 07012KT 30/16 A3015 RMK A01 T03040157  RH  041%=      5-min Rain = 0
KVP1 102123Z 07011KT 30/16 A3015 RMK A01 T03020157  RH  041%=      5-min Rain = 0
KVP1 102124Z 07010KT 30/16 A3015 RMK A01 T03020157  RH  041%=      5-min Rain = 0
KVP1 102125Z 07009KT 30/16 A3015 RMK A01 T03020156  RH  041%=      5-min Rain = 0
KVP1 102126Z 08010KT 30/16 A3015 RMK A01 T03020155  RH  041%=      5-min Rain = 0
KVP1 102127Z 07009KT 30/16 A3015 RMK A01 T03020156  RH  041%=      5-min Rain = 0
KVP1 102128Z 08008KT 30/16 A3015 RMK A01 T03010156  RH  041%=      5-min Rain = 0
KVP1 102129Z 08011KT 30/16 A3015 RMK A01 T03030156  RH  041%=      5-min Rain = 0
KVP1 102130Z 07010G15KT 31/16 A3015 RMK A01 T03050161  RH  042%=      5-min Rain = 0
KVP1 102131Z 08013KT 31/16 A3015 RMK A01 T03060160  RH  041%=      5-min Rain = 0
KVP1 102132Z 07012KT 30/16 A3015 RMK A01 T03030159  RH  042%=      5-min Rain = 0
KVP1 102133Z 08012KT 30/16 A3014 RMK A01 T03010161  RH  043%=      5-min Rain = 0
KVP1 102134Z 08017KT 30/16 A3014 RMK A01 T03000160  RH  043%=      5-min Rain = 0
KVP1 102135Z 08017KT 30/16 A3014 RMK A01 T02990159  RH  043%=      5-min Rain = 0
KVP1 102136Z 08015KT 30/16 A3014 RMK A01 T02950160  RH  044%=      5-min Rain = 0
KVP1 102137Z 08016KT 29/16 A3014 RMK A01 T02930161  RH  045%=      5-min Rain = 0
KVP1 102138Z 08017KT 29/16 A3014 RMK A01 T02920163  RH  046%=      5-min Rain = 0
KVP1 102139Z 08019KT 29/16 A3014 RMK A01 T02900164  RH  046%=      5-min Rain = 0
KVP1 102140Z 08020KT 29/16 A3014 RMK A01 T02860160  RH  047%=      5-min Rain = 0
KVP1 102141Z 08020KT 28/16 A3014 RMK A01 T02840157  RH  046%=      5-min Rain = 0
KVP1 102142Z 09021KT 28/16 A3014 RMK A01 T02830159  RH  047%=      5-min Rain = 0
KVP1 102143Z 09019G24KT 28/16 A3014 RMK A01 T02820163  RH  048%=      5-min Rain = 0
KVP1 102144Z 09020KT 28/16 A3014 RMK A01 T02810163  RH  049%=      5-min Rain = 0
KVP1 102145Z 08020KT 28/16 A3014 RMK A01 T02810164  RH  049%=      5-min Rain = 0
KVP1 102146Z 08018KT 28/16 A3014 RMK A01 T02800164  RH  049%=      5-min Rain = 0
KVP1 102147Z 08016KT 28/17 A3014 RMK A01 T02790165  RH  050%=      5-min Rain = 0
KVP1 102148Z 07017KT 28/16 A3014 RMK A01 T02790162  RH  049%=      5-min Rain = 0
KVP1 102149Z 07013KT 28/16 A3014 RMK A01 T02800162  RH  049%=      5-min Rain = 0
KVP1 102150Z 08013KT 29/16 A3014 RMK A01 T02850163  RH  048%=      5-min Rain = 0
KVP1 102151Z 07012KT 29/16 A3013 RMK A01 T02910162  RH  046%=      5-min Rain = 0
KVP1 102152Z 07011KT 30/16 A3013 RMK A01 T02960164  RH  045%=      5-min Rain = 0
KVP1 102153Z 07010KT 30/17 A3013 RMK A01 T03010165  RH  044%=      5-min Rain = 0
KVP1 102154Z 07011G16KT 31/17 A3013 RMK A01 T03060166  RH  043%=      5-min Rain = 0
KVP1 102155Z 08014KT 31/16 A3013 RMK A01 T03110161  RH  040%=      5-min Rain = 0
KVP1 102156Z 08012KT 31/16 A3013 RMK A01 T03110159  RH  040%=      5-min Rain = 0
KVP1 102157Z 08015KT 31/16 A3013 RMK A01 T03090160  RH  040%=      5-min Rain = 0
KVP1 102158Z 08016KT 31/16 A3014 RMK A01 T03080155  RH  040%=      5-min Rain = 0
KVP1 102159Z 08016KT 31/16 A3013 RMK A01 T03080156  RH  040%=      5-min Rain = 0
KVP1 102200Z 08014KT 31/16 A3013 RMK A01 T03060159  RH  041%=      5-min Rain = 0
KVP1 102201Z 08013KT 30/16 A3014 RMK A01 T03030160  RH  042%=      5-min Rain = 0
KVP1 102202Z 08015KT 30/16 A3014 RMK A01 T03020157  RH  041%=      5-min Rain = 0
KVP1 102203Z 08015KT 30/16 A3014 RMK A01 T03010159  RH  042%=      5-min Rain = 0
KVP1 102204Z 08014KT 30/16 A3014 RMK A01 T02990163  RH  044%=      5-min Rain = 0
KVP1 102205Z 08013KT 30/16 A3014 RMK A01 T02980164  RH  044%=      5-min Rain = 0
KVP1 102206Z 08015KT 30/16 A3014 RMK A01 T02980164  RH  044%=      5-min Rain = 0
KVP1 102207Z 07015KT 30/17 A3014 RMK A01 T02960166  RH  045%=      5-min Rain = 0
KVP1 102208Z 07017KT 29/17 A3013 RMK A01 T02930169  RH  047%=      5-min Rain = 0
KVP1 102209Z 07016KT 29/17 A3013 RMK A01 T02890172  RH  049%=      5-min Rain = 0
KVP1 102210Z 07016KT 29/17 A3013 RMK A01 T02870171  RH  050%=      5-min Rain = 0
KVP1 102211Z 07016KT 29/17 A3013 RMK A01 T02890172  RH  049%=      5-min Rain = 0
KVP1 102212Z 07014KT 29/17 A3013 RMK A01 T02910174  RH  049%=      5-min Rain = 0
KVP1 102213Z 08016KT 29/17 A3013 RMK A01 T02920173  RH  049%=      5-min Rain = 0
KVP1 102214Z 07015KT 30/17 A3013 RMK A01 T02950173  RH  048%=      5-min Rain = 0
KVP1 102215Z 07013KT 30/18 A3014 RMK A01 T02960180  RH  050%=      5-min Rain = 0
KVP1 102216Z 08013KT 30/18 A3013 RMK A01 T02970182  RH  050%=      5-min Rain = 0
KVP1 102217Z 07012KT 30/18 A3013 RMK A01 T02970182  RH  050%=      5-min Rain = 0
KVP1 102218Z 08012G18KT 30/18 A3013 RMK A01 T02960184  RH  051%=      5-min Rain = 0
KVP1 102219Z 08018KT 30/18 A3013 RMK A01 T03000179  RH  048%=      5-min Rain = 0
KVP1 102220Z 08015KT 30/18 A3013 RMK A01 T03000180  RH  049%=      5-min Rain = 0
KVP1 102221Z 08016KT 30/18 A3013 RMK A01 T03010182  RH  049%=      5-min Rain = 0
KVP1 102222Z 07013KT 30/19 A3013 RMK A01 T02990188  RH  051%=      5-min Rain = 0
KVP1 102223Z 08016KT 30/18 A3013 RMK A01 T03010180  RH  048%=      5-min Rain = 0
KVP1 102224Z 07015KT 30/18 A3013 RMK A01 T02980178  RH  048%=      5-min Rain = 0
KVP1 102225Z 07014KT 30/18 A3013 RMK A01 T02980177  RH  048%=      5-min Rain = 0
KVP1 102226Z 07015KT 30/18 A3013 RMK A01 T02990176  RH  048%=      5-min Rain = 0
KVP1 102227Z 08014KT 30/18 A3013 RMK A01 T02980178  RH  048%=      5-min Rain = 0
KVP1 102228Z 08015KT 30/17 A3013 RMK A01 T03010173  RH  046%=      5-min Rain = 0
KVP1 102229Z 08015KT 30/18 A3013 RMK A01 T03020177  RH  047%=      5-min Rain = 0
KVP1 102230Z 07017KT 30/18 A3013 RMK A01 T03030175  RH  046%=      5-min Rain = 0
KVP1 102231Z 07017KT 30/17 A3013 RMK A01 T03010174  RH  046%=      5-min Rain = 0
KVP1 102232Z 08014KT 30/18 A3013 RMK A01 T02980177  RH  048%=      5-min Rain = 0
KVP1 102233Z 07014KT 30/18 A3013 RMK A01 T02980178  RH  048%=      5-min Rain = 0
KVP1 102234Z 07015KT 30/18 A3013 RMK A01 T03000179  RH  048%=      5-min Rain = 0
KVP1 102235Z 07016KT 30/18 A3012 RMK A01 T02970175  RH  048%=      5-min Rain = 0
KVP1 102236Z 07015KT 29/18 A3012 RMK A01 T02930175  RH  049%=      5-min Rain = 0
KVP1 102237Z 08013KT 29/18 A3012 RMK A01 T02910176  RH  050%=      5-min Rain = 0
KVP1 102238Z 07014KT 29/18 A3012 RMK A01 T02890177  RH  051%=      5-min Rain = 0
KVP1 102239Z 08013KT 29/18 A3012 RMK A01 T02860176  RH  051%=      5-min Rain = 0
KVP1 102240Z 07014KT 29/18 A3012 RMK A01 T02850177  RH  052%=      5-min Rain = 0
KVP1 102241Z 07014KT 28/18 A3012 RMK A01 T02840176  RH  052%=      5-min Rain = 0
KVP1 102242Z 08017KT 28/17 A3012 RMK A01 T02840170  RH  050%=      5-min Rain = 0
KVP1 102243Z 08017KT 29/17 A3012 RMK A01 T02850169  RH  050%=      5-min Rain = 0
KVP1 102244Z 08018KT 29/17 A3012 RMK A01 T02850169  RH  049%=      5-min Rain = 0
KVP1 102245Z 08017KT 29/17 A3012 RMK A01 T02860169  RH  049%=      5-min Rain = 0
KVP1 102246Z 08015KT 29/17 A3013 RMK A01 T02890174  RH  050%=      5-min Rain = 0
KVP1 102247Z 09015KT 29/18 A3013 RMK A01 T02940176  RH  049%=      5-min Rain = 0
KVP1 102248Z 09018G23KT 30/18 A3013 RMK A01 T02990176  RH  048%=      5-min Rain = 0
KVP1 102249Z 10021KT 30/18 A3013 RMK A01 T03020178  RH  047%=      5-min Rain = 0
KVP1 102250Z 09020KT 30/18 A3013 RMK A01 T03010177  RH  047%=      5-min Rain = 0
KVP1 102251Z 10019G24KT 30/18 A3013 RMK A01 T02960176  RH  048%=      5-min Rain = 0
KVP1 102252Z 10020G25KT 30/18 A3013 RMK A01 T02950175  RH  048%=      5-min Rain = 0
KVP1 102253Z 10024KT 29/17 A3012 RMK A01 T02940173  RH  048%=      5-min Rain = 0
KVP1 102254Z 09026KT 29/17 A3013 RMK A01 T02900170  RH  048%=      5-min Rain = 0
KVP1 102255Z 09022G27KT 29/17 A3013 RMK A01 T02850171  RH  050%=      5-min Rain = 0
KVP1 102256Z 10023G29KT 28/17 A3013 RMK A01 T02830174  RH  052%=      5-min Rain = 0
KVP1 102257Z 10024G29KT 28/17 A3013 RMK A01 T02800173  RH  052%=      5-min Rain = 0
KVP1 102258Z 09024KT 28/17 A3013 RMK A01 T02760172  RH  053%=      5-min Rain = 0
KVP1 102259Z 08023KT 27/17 A3013 RMK A01 T02730171  RH  054%=      5-min Rain = 0
KVP1 102300Z 09027KT 27/17 A3013 RMK A01 T02680167  RH  054%=      5-min Rain = 0
KVP1 102301Z 09026G31KT 27/16 A3013 RMK A01 T02660163  RH  053%=      5-min Rain = 0
KVP1 102302Z 10023KT 27/16 A3013 RMK A01 T02670164  RH  053%=      5-min Rain = 0
KVP1 102303Z 10020G25KT 27/16 A3013 RMK A01 T02710164  RH  052%=      5-min Rain = 0
KVP1 102304Z 10017G22KT 28/17 A3013 RMK A01 T02750166  RH  051%=      5-min Rain = 0
KVP1 102305Z 10021KT 28/17 A3013 RMK A01 T02770169  RH  052%=      5-min Rain = 0
KVP1 102306Z 10022G27KT 28/17 A3013 RMK A01 T02800171  RH  052%=      5-min Rain = 0
KVP1 102307Z 10023G31KT 28/17 A3012 RMK A01 T02810171  RH  051%=      5-min Rain = 0
KVP1 102308Z 09028KT 28/18 A3012 RMK A01 T02770175  RH  054%=      5-min Rain = 0
KVP1 102309Z 10024KT 27/18 A3012 RMK A01 T02710176  RH  056%=      5-min Rain = 0
KVP1 102310Z 11025KT 27/17 A3012 RMK A01 T02720165  RH  052%=      5-min Rain = 0
KVP1 102311Z 11027G33KT 27/17 A3012 RMK A01 T02730174  RH  055%=      5-min Rain = 0
KVP1 102312Z 10024KT 27/17 A3013 RMK A01 T02670170  RH  055%=      5-min Rain = 0
KVP1 102313Z 11025KT 27/16 A3012 RMK A01 T02670164  RH  053%=      5-min Rain = 0
KVP1 102314Z 11024KT 27/16 A3013 RMK A01 T02680164  RH  053%=      5-min Rain = 0
KVP1 102315Z 11021KT 27/17 A3013 RMK A01 T02690165  RH  053%=      5-min Rain = 0
KVP1 102316Z 10018KT 27/17 A3013 RMK A01 T02710173  RH  055%=      5-min Rain = 0
KVP1 102317Z 10017KT 27/18 A3013 RMK A01 T02680179  RH  058%=      5-min Rain = 0
KVP1 102318Z 10018KT 26/18 A3013 RMK A01 T02640178  RH  059%=      5-min Rain = 0
KVP1 102319Z 10016KT 26/18 A3013 RMK A01 T02580180  RH  062%=      5-min Rain = 0
KVP1 102320Z 10016KT 26/18 A3013 RMK A01 T02550184  RH  065%=      5-min Rain = 0
KVP1 102321Z 09018G26KT 25/19 A3012 RMK A01 T02520185  RH  066%=      5-min Rain = 0
KVP1 102322Z 10018G24KT 25/18 A3012 RMK A01 T02500183  RH  066%=      5-min Rain = 0
KVP1 102323Z 10016KT 25/19 A3012 RMK A01 T02500186  RH  068%=      5-min Rain = 0
KVP1 102324Z 10016KT 25/19 A3012 RMK A01 T02500188  RH  069%=      5-min Rain = 0
KVP1 102325Z 10016G23KT 25/19 A3012 RMK A01 T02490190  RH  070%=      5-min Rain = 0
KVP1 102326Z 11022KT 25/18 A3012 RMK A01 T02490181  RH  066%=      5-min Rain = 0
KVP1 102327Z 10020KT 25/18 A3012 RMK A01 T02520180  RH  064%=      5-min Rain = 0
KVP1 102328Z 11019KT 25/18 A3012 RMK A01 T02520183  RH  065%=      5-min Rain = 0
KVP1 102329Z 11018KT 25/18 A3012 RMK A01 T02520184  RH  066%=      5-min Rain = 0
KVP1 102330Z 10018KT 25/19 A3012 RMK A01 T02520186  RH  067%=      5-min Rain = 0
KVP1 102331Z 09015KT 25/19 A3012 RMK A01 T02500190  RH  069%=      5-min Rain = 0
KVP1 102332Z 09013KT 25/19 A3012 RMK A01 T02470192  RH  071%=      5-min Rain = 0
KVP1 102333Z 09013KT 24/19 A3012 RMK A01 T02440194  RH  074%=      5-min Rain = 0
KVP1 102334Z 09012KT 24/19 A3012 RMK A01 T02420194  RH  075%=      5-min Rain = 0
KVP1 102335Z 09012KT 24/20 A3012 RMK A01 T02420195  RH  075%=      5-min Rain = 0
KVP1 102336Z 09011KT 24/20 A3012 RMK A01 T02420195  RH  075%=      5-min Rain = 0
KVP1 102337Z 10012KT 24/20 A3012 RMK A01 T02430195  RH  074%=      5-min Rain = 0
KVP1 102338Z 10013KT 24/19 A3012 RMK A01 T02440193  RH  073%=      5-min Rain = 0
KVP1 102339Z 09012KT 25/19 A3012 RMK A01 T02450188  RH  071%=      5-min Rain = 0
KVP1 102340Z 09012KT 25/19 A3012 RMK A01 T02470187  RH  069%=      5-min Rain = 0
KVP1 102341Z 09012KT 25/18 A3012 RMK A01 T02470182  RH  067%=      5-min Rain = 0
KVP1 102342Z 09010KT 25/18 A3012 RMK A01 T02490179  RH  065%=      5-min Rain = 0
KVP1 102343Z 09010KT 25/18 A3011 RMK A01 T02510178  RH  064%=      5-min Rain = 0
KVP1 102344Z 08010KT 25/18 A3011 RMK A01 T02520176  RH  063%=      5-min Rain = 0
KVP1 102345Z 09009KT 25/18 A3011 RMK A01 T02530176  RH  062%=      5-min Rain = 0
KVP1 102346Z 08011KT 25/18 A3011 RMK A01 T02540177  RH  063%=      5-min Rain = 0
KVP1 102347Z 09011KT 25/18 A3011 RMK A01 T02540176  RH  062%=      5-min Rain = 0
KVP1 102348Z 09010KT 26/18 A3011 RMK A01 T02550178  RH  062%=      5-min Rain = 0
KVP1 102349Z 09009KT 26/18 A3011 RMK A01 T02550179  RH  063%=      5-min Rain = 0
KVP1 102350Z 09010KT 26/18 A3011 RMK A01 T02570180  RH  063%=      5-min Rain = 0
KVP1 102351Z 09010KT 26/18 A3011 RMK A01 T02580180  RH  062%=      5-min Rain = 0
KVP1 102352Z 09011KT 26/18 A3011 RMK A01 T02600182  RH  062%=      5-min Rain = 0
KVP1 102353Z 09010KT 26/19 A3011 RMK A01 T02630185  RH  062%=      5-min Rain = 0
KVP1 102354Z 09010KT 27/19 A3011 RMK A01 T02660187  RH  062%=      5-min Rain = 0
KVP1 102355Z 10010KT 27/19 A3011 RMK A01 T02700189  RH  061%=      5-min Rain = 0
KVP1 102356Z 10010KT 27/19 A3011 RMK A01 T02730190  RH  061%=      5-min Rain = 0
KVP1 102357Z 09011KT 27/19 A3011 RMK A01 T02740190  RH  060%=      5-min Rain = 0
KVP1 102358Z 09011KT 28/19 A3011 RMK A01 T02780189  RH  058%=      5-min Rain = 0
KVP1 102359Z 10011KT 28/19 A3011 RMK A01 T02800188  RH  057%=      5-min Rain = 0
KVP1 110000Z 10011KT 28/19 A3011 RMK A01 T02810188  RH  057%=      5-min Rain = 0
KVP1 110001Z 10009KT 28/19 A3011 RMK A01 T02820188  RH  057%=      5-min Rain = 0
KVP1 110002Z 10010KT 28/19 A3011 RMK A01 T02830189  RH  057%=      5-min Rain = 0
KVP1 110003Z 10009KT 28/19 A3011 RMK A01 T02840189  RH  056%=      5-min Rain = 0
KVP1 110004Z 11008KT 29/19 A3011 RMK A01 T02850189  RH  056%=      5-min Rain = 0
KVP1 110005Z 11008KT 29/19 A3011 RMK A01 T02860191  RH  057%=      5-min Rain = 0
KVP1 110006Z 11008KT 29/19 A3011 RMK A01 T02870189  RH  055%=      5-min Rain = 0
KVP1 110007Z 11008KT 29/19 A3011 RMK A01 T02870189  RH  055%=      5-min Rain = 0
KVP1 110008Z 11008KT 29/19 A3011 RMK A01 T02890190  RH  055%=      5-min Rain = 0
KVP1 110009Z 11008KT 29/19 A3011 RMK A01 T02900188  RH  054%=      5-min Rain = 0
KVP1 110010Z 11008KT 29/19 A3011 RMK A01 T02900188  RH  054%=      5-min Rain = 0
KVP1 110011Z 11008KT 29/19 A3011 RMK A01 T02900188  RH  054%=      5-min Rain = 0
KVP1 110012Z 11009KT 29/19 A3011 RMK A01 T02900187  RH  054%=      5-min Rain = 0
KVP1 110013Z 12008KT 29/19 A3011 RMK A01 T02890187  RH  054%=      5-min Rain = 0
KVP1 110014Z 11008KT 29/19 A3011 RMK A01 T02900187  RH  054%=      5-min Rain = 0
KVP1 110015Z 11008KT 29/19 A3011 RMK A01 T02900188  RH  054%=      5-min Rain = 0
KVP1 110016Z 11008KT 29/19 A3011 RMK A01 T02900186  RH  053%=      5-min Rain = 0
KVP1 110017Z 12008KT 29/19 A3011 RMK A01 T02900185  RH  053%=      5-min Rain = 0
KVP1 110018Z 12009KT 29/19 A3011 RMK A01 T02910185  RH  053%=      5-min Rain = 0
KVP1 110019Z 12008KT 29/19 A3011 RMK A01 T02900186  RH  053%=      5-min Rain = 0
KVP1 110020Z 11008KT 29/19 A3011 RMK A01 T02900187  RH  054%=      5-min Rain = 0
KVP1 110021Z 11008KT 29/19 A3011 RMK A01 T02900188  RH  054%=      5-min Rain = 0
KVP1 110022Z 11008KT 29/19 A3011 RMK A01 T02900186  RH  054%=      5-min Rain = 0
KVP1 110023Z 11007KT 29/19 A3011 RMK A01 T02890188  RH  054%=      5-min Rain = 0
KVP1 110024Z 11008KT 29/19 A3011 RMK A01 T02890187  RH  054%=      5-min Rain = 0
KVP1 110025Z 11007KT 29/19 A3011 RMK A01 T02890188  RH  054%=      5-min Rain = 0
KVP1 110026Z 11007KT 29/19 A3011 RMK A01 T02890187  RH  054%=      5-min Rain = 0
KVP1 110027Z 11008KT 29/19 A3011 RMK A01 T02890188  RH  054%=      5-min Rain = 0
KVP1 110028Z 11008KT 29/19 A3011 RMK A01 T02890188  RH  054%=      5-min Rain = 0
KVP1 110029Z 11007KT 29/19 A3011 RMK A01 T02890191  RH  055%=      5-min Rain = 0
KVP1 110030Z 11007KT 29/19 A3011 RMK A01 T02890191  RH  055%=      5-min Rain = 0
KVP1 110031Z 11007KT 29/19 A3011 RMK A01 T02890191  RH  055%=      5-min Rain = 0
KVP1 110032Z 10007KT 29/19 A3011 RMK A01 T02890193  RH  056%=      5-min Rain = 0
KVP1 110033Z 11008KT 29/19 A3011 RMK A01 T02890191  RH  055%=      5-min Rain = 0
KVP1 110034Z 11008KT 29/19 A3011 RMK A01 T02890191  RH  056%=      5-min Rain = 0
KVP1 110035Z 10008KT 29/19 A3011 RMK A01 T02880191  RH  056%=      5-min Rain = 0
KVP1 110036Z 10008KT 29/19 A3011 RMK A01 T02880193  RH  056%=      5-min Rain = 0
KVP1 110037Z 11008KT 29/19 A3011 RMK A01 T02880191  RH  056%=      5-min Rain = 0
KVP1 110038Z 11008KT 29/19 A3011 RMK A01 T02880188  RH  055%=      5-min Rain = 0
KVP1 110039Z 11008KT 29/19 A3011 RMK A01 T02880190  RH  055%=      5-min Rain = 0
KVP1 110040Z 11008KT 29/19 A3011 RMK A01 T02880189  RH  055%=      5-min Rain = 0
KVP1 110041Z 11008KT 29/19 A3011 RMK A01 T02870189  RH  055%=      5-min Rain = 0
KVP1 110042Z 11008KT 29/19 A3011 RMK A01 T02870189  RH  056%=      5-min Rain = 0
KVP1 110043Z 10009KT 29/19 A3011 RMK A01 T02870189  RH  056%=      5-min Rain = 0
KVP1 110044Z 10009KT 29/19 A3011 RMK A01 T02870190  RH  056%=      5-min Rain = 0
KVP1 110045Z 10008KT 29/19 A3011 RMK A01 T02860190  RH  056%=      5-min Rain = 0
KVP1 110046Z 10008KT 29/19 A3011 RMK A01 T02860189  RH  056%=      5-min Rain = 0
KVP1 110047Z 10008KT 29/19 A3011 RMK A01 T02860190  RH  056%=      5-min Rain = 0
KVP1 110048Z 10009KT 29/19 A3011 RMK A01 T02860190  RH  056%=      5-min Rain = 0
KVP1 110049Z 10008KT 29/19 A3011 RMK A01 T02850189  RH  056%=      5-min Rain = 0
KVP1 110050Z 09008KT 28/19 A3011 RMK A01 T02840191  RH  057%=      5-min Rain = 0
KVP1 110051Z 09008KT 29/19 A3011 RMK A01 T02850191  RH  057%=      5-min Rain = 0
KVP1 110052Z 09008KT 28/19 A3011 RMK A01 T02840190  RH  057%=      5-min Rain = 0
KVP1 110053Z 10009KT 28/19 A3011 RMK A01 T02840189  RH  056%=      5-min Rain = 0
KVP1 110054Z 10009KT 28/19 A3011 RMK A01 T02840186  RH  055%=      5-min Rain = 0
KVP1 110055Z 09007KT 28/19 A3011 RMK A01 T02840188  RH  056%=      5-min Rain = 0
KVP1 110056Z 09007KT 28/19 A3011 RMK A01 T02840192  RH  057%=      5-min Rain = 0
KVP1 110057Z 10008KT 29/19 A3011 RMK A01 T02850191  RH  057%=      5-min Rain = 0
KVP1 110058Z 09009KT 29/19 A3011 RMK A01 T02860192  RH  057%=      5-min Rain = 0
KVP1 110059Z 09009KT 29/19 A3011 RMK A01 T02850193  RH  057%=      5-min Rain = 0
KVP1 110100Z 09010KT 29/19 A3011 RMK A01 T02850191  RH  057%=      5-min Rain = 0
KVP1 110101Z 09009KT 28/19 A3011 RMK A01 T02840188  RH  056%=      5-min Rain = 0
KVP1 110102Z 09007KT 28/19 A3012 RMK A01 T02830191  RH  057%=      5-min Rain = 0
KVP1 110103Z 09009KT 28/19 A3012 RMK A01 T02830190  RH  057%=      5-min Rain = 0
KVP1 110104Z 09008KT 28/19 A3012 RMK A01 T02830192  RH  058%=      5-min Rain = 0
KVP1 110105Z 09009KT 28/19 A3012 RMK A01 T02820191  RH  058%=      5-min Rain = 0
KVP1 110106Z 09009KT 28/19 A3012 RMK A01 T02810190  RH  057%=      5-min Rain = 0
KVP1 110107Z 09009KT 28/19 A3012 RMK A01 T02810188  RH  057%=      5-min Rain = 0
KVP1 110108Z 09008KT 28/19 A3012 RMK A01 T02800187  RH  057%=      5-min Rain = 0
KVP1 110109Z 09009KT 28/19 A3012 RMK A01 T02810188  RH  057%=      5-min Rain = 0
KVP1 110110Z 09009KT 28/19 A3012 RMK A01 T02800187  RH  057%=      5-min Rain = 0
KVP1 110111Z 09008KT 28/19 A3012 RMK A01 T02780188  RH  058%=      5-min Rain = 0
KVP1 110112Z 09008KT 28/19 A3012 RMK A01 T02780188  RH  058%=      5-min Rain = 0
KVP1 110113Z 09009KT 28/19 A3012 RMK A01 T02770188  RH  058%=      5-min Rain = 0
KVP1 110114Z 09009KT 28/19 A3012 RMK A01 T02760189  RH  059%=      5-min Rain = 0
KVP1 110115Z 09009KT 28/19 A3012 RMK A01 T02750189  RH  059%=      5-min Rain = 0
KVP1 110116Z 09009KT 28/19 A3012 RMK A01 T02750189  RH  060%=      5-min Rain = 0
KVP1 110117Z 09009KT 27/19 A3012 RMK A01 T02740189  RH  060%=      5-min Rain = 0
KVP1 110118Z 10010KT 27/19 A3012 RMK A01 T02740189  RH  060%=      5-min Rain = 0
KVP1 110119Z 10014KT 27/19 A3012 RMK A01 T02730188  RH  060%=      5-min Rain = 0
KVP1 110120Z 11021KT 27/18 A3012 RMK A01 T02730182  RH  058%=      5-min Rain = 0
KVP1 110121Z 10017KT 27/18 A3012 RMK A01 T02730182  RH  058%=      5-min Rain = 0
KVP1 110122Z 11017KT 27/19 A3012 RMK A01 T02720185  RH  059%=      5-min Rain = 0
KVP1 110123Z 11018KT 27/18 A3012 RMK A01 T02700182  RH  059%=      5-min Rain = 0
KVP1 110124Z 11017KT 27/18 A3012 RMK A01 T02690181  RH  059%=      5-min Rain = 0
KVP1 110125Z 10014KT 27/18 A3012 RMK A01 T02690181  RH  059%=      5-min Rain = 0
KVP1 110126Z 10016KT 27/18 A3012 RMK A01 T02680182  RH  059%=      5-min Rain = 0
KVP1 110127Z 11014KT 27/18 A3012 RMK A01 T02670183  RH  060%=      5-min Rain = 0
KVP1 110128Z 11012KT 27/18 A3013 RMK A01 T02660183  RH  060%=      5-min Rain = 0
KVP1 110129Z 11011KT 27/18 A3013 RMK A01 T02650183  RH  061%=      5-min Rain = 0
KVP1 110130Z 10014KT 26/18 A3013 RMK A01 T02630182  RH  061%=      5-min Rain = 0
KVP1 110131Z 11012KT 26/18 A3013 RMK A01 T02630183  RH  061%=      5-min Rain = 0
KVP1 110132Z 12011KT 26/18 A3013 RMK A01 T02620183  RH  062%=      5-min Rain = 0
KVP1 110133Z 12011KT 26/18 A3013 RMK A01 T02610183  RH  062%=      5-min Rain = 0
KVP1 110134Z 12013KT 26/18 A3013 RMK A01 T02600181  RH  062%=      5-min Rain = 0
KVP1 110135Z 13016G21KT 26/18 A3013 RMK A01 T02600176  RH  060%=      5-min Rain = 0
KVP1 110136Z 13020KT 26/17 A3013 RMK A01 T02600169  RH  057%=      5-min Rain = 0
KVP1 110137Z 14017G22KT 26/17 A3013 RMK A01 T02610167  RH  056%=      5-min Rain = 0
KVP1 110138Z 13017KT 26/17 A3013 RMK A01 T02610167  RH  056%=      5-min Rain = 0
KVP1 110139Z 13017KT 26/17 A3013 RMK A01 T02600167  RH  057%=      5-min Rain = 0
KVP1 110140Z 14017KT 26/17 A3013 RMK A01 T02590167  RH  057%=      5-min Rain = 0
KVP1 110141Z 14016KT 26/17 A3013 RMK A01 T02580168  RH  058%=      5-min Rain = 0
KVP1 110142Z 14017KT 26/17 A3013 RMK A01 T02570169  RH  058%=      5-min Rain = 0
KVP1 110143Z 14018KT 26/17 A3013 RMK A01 T02550169  RH  059%=      5-min Rain = 0
KVP1 110144Z 14016KT 26/17 A3013 RMK A01 T02550170  RH  059%=      5-min Rain = 0
KVP1 110145Z 14017KT 25/17 A3013 RMK A01 T02540171  RH  060%=      5-min Rain = 0
KVP1 110146Z 14015KT 25/17 A3013 RMK A01 T02530172  RH  061%=      5-min Rain = 0
KVP1 110147Z 14014KT 25/17 A3013 RMK A01 T02520172  RH  061%=      5-min Rain = 0
KVP1 110148Z 14016KT 25/17 A3013 RMK A01 T02510172  RH  061%=      5-min Rain = 0
KVP1 110149Z 14014KT 25/17 A3013 RMK A01 T02510171  RH  061%=      5-min Rain = 0
KVP1 110150Z 14015KT 25/17 A3013 RMK A01 T02500172  RH  062%=      5-min Rain = 0
KVP1 110151Z 14014KT 25/17 A3013 RMK A01 T02500172  RH  062%=      5-min Rain = 0
KVP1 110152Z 14013KT 25/17 A3013 RMK A01 T02490173  RH  063%=      5-min Rain = 0
KVP1 110153Z 15012KT 25/17 A3013 RMK A01 T02480173  RH  063%=      5-min Rain = 0
KVP1 110154Z 14014KT 25/17 A3013 RMK A01 T02470173  RH  063%=      5-min Rain = 0
KVP1 110155Z 14012KT 25/17 A3013 RMK A01 T02470172  RH  063%=      5-min Rain = 0
KVP1 110156Z 14013KT 25/17 A3013 RMK A01 T02470173  RH  063%=      5-min Rain = 0
KVP1 110157Z 14013KT 25/17 A3013 RMK A01 T02470174  RH  064%=      5-min Rain = 0
KVP1 110158Z 14013KT 25/17 A3014 RMK A01 T02460174  RH  064%=      5-min Rain = 0
KVP1 110159Z 14012KT 25/18 A3014 RMK A01 T02450175  RH  065%=      5-min Rain = 0
KVP1 110200Z 14012KT 25/18 A3014 RMK A01 T02450175  RH  065%=      5-min Rain = 0
KVP1 110201Z 14011KT 24/18 A3014 RMK A01 T02440175  RH  065%=      5-min Rain = 0
KVP1 110202Z 14012KT 24/18 A3014 RMK A01 T02440176  RH  066%=      5-min Rain = 0
KVP1 110203Z 14011KT 24/18 A3014 RMK A01 T02430175  RH  066%=      5-min Rain = 0
KVP1 110204Z 14010KT 24/17 A3014 RMK A01 T02420174  RH  066%=      5-min Rain = 0
KVP1 110205Z 13012KT 24/17 A3014 RMK A01 T02410173  RH  065%=      5-min Rain = 0
KVP1 110206Z 14012KT 24/17 A3014 RMK A01 T02420171  RH  065%=      5-min Rain = 0
KVP1 110207Z 14011KT 24/17 A3014 RMK A01 T02420169  RH  064%=      5-min Rain = 0
KVP1 110208Z 13011KT 24/17 A3014 RMK A01 T02420169  RH  064%=      5-min Rain = 0
KVP1 110209Z 13010KT 24/17 A3014 RMK A01 T02410170  RH  064%=      5-min Rain = 0
KVP1 110210Z 13011KT 24/17 A3014 RMK A01 T02400170  RH  065%=      5-min Rain = 0
KVP1 110211Z 13010KT 24/17 A3014 RMK A01 T02390170  RH  065%=      5-min Rain = 0
KVP1 110212Z 14010KT 24/17 A3014 RMK A01 T02390170  RH  065%=      5-min Rain = 0
KVP1 110213Z 14010KT 24/17 A3014 RMK A01 T02380169  RH  065%=      5-min Rain = 0
KVP1 110214Z 14010KT 24/17 A3014 RMK A01 T02380169  RH  065%=      5-min Rain = 0
KVP1 110215Z 14010KT 24/17 A3014 RMK A01 T02380169  RH  065%=      5-min Rain = 0
KVP1 110216Z 14010KT 24/17 A3014 RMK A01 T02370168  RH  065%=      5-min Rain = 0
KVP1 110217Z 14010KT 24/17 A3014 RMK A01 T02370168  RH  065%=      5-min Rain = 0
KVP1 110218Z 14009KT 24/17 A3013 RMK A01 T02370167  RH  065%=      5-min Rain = 0
KVP1 110219Z 14010KT 24/17 A3013 RMK A01 T02370167  RH  065%=      5-min Rain = 0
KVP1 110220Z 14010KT 24/17 A3013 RMK A01 T02370166  RH  065%=      5-min Rain = 0
KVP1 110221Z 15009KT 24/17 A3013 RMK A01 T02370166  RH  065%=      5-min Rain = 0
KVP1 110222Z 15009KT 24/17 A3013 RMK A01 T02370167  RH  065%=      5-min Rain = 0
KVP1 110223Z 15009KT 24/17 A3013 RMK A01 T02370167  RH  065%=      5-min Rain = 0
KVP1 110224Z 15010KT 24/17 A3013 RMK A01 T02370166  RH  065%=      5-min Rain = 0
KVP1 110225Z 14010KT 24/17 A3013 RMK A01 T02370166  RH  065%=      5-min Rain = 0
KVP1 110226Z 14012KT 24/17 A3014 RMK A01 T02360165  RH  064%=      5-min Rain = 0
KVP1 110227Z 15012KT 24/17 A3013 RMK A01 T02370165  RH  064%=      5-min Rain = 0
KVP1 110228Z 14010KT 24/17 A3013 RMK A01 T02370165  RH  064%=      5-min Rain = 0
KVP1 110229Z 14010KT 24/17 A3013 RMK A01 T02370165  RH  064%=      5-min Rain = 0
KVP1 110230Z 15010KT 24/16 A3013 RMK A01 T02370164  RH  064%=      5-min Rain = 0
KVP1 110231Z 15010KT 24/16 A3013 RMK A01 T02370164  RH  064%=      5-min Rain = 0
KVP1 110232Z 15010KT 24/16 A3013 RMK A01 T02360164  RH  064%=      5-min Rain = 0
KVP1 110233Z 14011KT 24/16 A3013 RMK A01 T02360164  RH  064%=      5-min Rain = 0
KVP1 110234Z 14010KT 24/16 A3013 RMK A01 T02360164  RH  064%=      5-min Rain = 0
KVP1 110235Z 14011KT 24/16 A3013 RMK A01 T02360163  RH  064%=      5-min Rain = 0
KVP1 110236Z 14009KT 24/16 A3013 RMK A01 T02350163  RH  064%=      5-min Rain = 0
KVP1 110237Z 13009KT 24/16 A3013 RMK A01 T02350164  RH  064%=      5-min Rain = 0
KVP1 110238Z 13008KT 24/16 A3013 RMK A01 T02350163  RH  064%=      5-min Rain = 0
KVP1 110239Z 13008KT 23/16 A3013 RMK A01 T02340163  RH  064%=      5-min Rain = 0
KVP1 110240Z 13007KT 23/16 A3013 RMK A01 T02340164  RH  065%=      5-min Rain = 0
KVP1 110241Z 13007KT 23/16 A3013 RMK A01 T02330164  RH  065%=      5-min Rain = 0
KVP1 110242Z 13007KT 23/16 A3014 RMK A01 T02320163  RH  065%=      5-min Rain = 0
KVP1 110243Z 13006KT 23/16 A3014 RMK A01 T02310163  RH  066%=      5-min Rain = 0
KVP1 110244Z 12006KT 23/16 A3014 RMK A01 T02310164  RH  066%=      5-min Rain = 0
KVP1 110245Z 12006KT 23/16 A3014 RMK A01 T02300164  RH  066%=      5-min Rain = 0
KVP1 110246Z 12005KT 23/17 A3014 RMK A01 T02290165  RH  067%=      5-min Rain = 0
KVP1 110247Z 12005KT 23/17 A3014 RMK A01 T02280165  RH  068%=      5-min Rain = 0
KVP1 110248Z 12006KT 23/17 A3014 RMK A01 T02280166  RH  068%=      5-min Rain = 0
KVP1 110249Z 12006KT 23/17 A3014 RMK A01 T02260165  RH  068%=      5-min Rain = 0
KVP1 110250Z 12005KT 23/17 A3014 RMK A01 T02260166  RH  069%=      5-min Rain = 0
KVP1 110251Z 12005KT 23/17 A3014 RMK A01 T02260166  RH  069%=      5-min Rain = 0
KVP1 110252Z 12005KT 23/17 A3014 RMK A01 T02250166  RH  069%=      5-min Rain = 0
KVP1 110253Z 11005KT 23/17 A3014 RMK A01 T02250166  RH  069%=      5-min Rain = 0
KVP1 110254Z 12006KT 23/17 A3014 RMK A01 T02250166  RH  069%=      5-min Rain = 0
KVP1 110255Z 12006KT 22/17 A3014 RMK A01 T02240166  RH  070%=      5-min Rain = 0
KVP1 110256Z 12006KT 22/17 A3014 RMK A01 T02240166  RH  070%=      5-min Rain = 0
KVP1 110257Z 12006KT 22/17 A3014 RMK A01 T02240166  RH  070%=      5-min Rain = 0
KVP1 110258Z 13006KT 22/17 A3014 RMK A01 T02240166  RH  070%=      5-min Rain = 0
KVP1 110259Z 13006KT 22/17 A3014 RMK A01 T02240166  RH  070%=      5-min Rain = 0
KVP1 110300Z 13006KT 22/17 A3015 RMK A01 T02240166  RH  070%=      5-min Rain = 0
KVP1 110301Z 13007KT 22/17 A3015 RMK A01 T02230166  RH  070%=      5-min Rain = 0
KVP1 110302Z 13007KT 22/17 A3015 RMK A01 T02230167  RH  070%=      5-min Rain = 0
KVP1 110303Z 13006KT 22/17 A3015 RMK A01 T02230166  RH  070%=      5-min Rain = 0
KVP1 110304Z 14006KT 22/17 A3015 RMK A01 T02230167  RH  070%=      5-min Rain = 0
KVP1 110305Z 13006KT 22/17 A3015 RMK A01 T02230167  RH  070%=      5-min Rain = 0
KVP1 110306Z 13007KT 22/17 A3015 RMK A01 T02230166  RH  070%=      5-min Rain = 0
KVP1 110307Z 13007KT 22/17 A3015 RMK A01 T02230166  RH  070%=      5-min Rain = 0
KVP1 110308Z 14007KT 22/17 A3015 RMK A01 T02230166  RH  070%=      5-min Rain = 0
KVP1 110309Z 14007KT 22/17 A3015 RMK A01 T02230166  RH  070%=      5-min Rain = 0
KVP1 110310Z 14007KT 22/17 A3015 RMK A01 T02220166  RH  070%=      5-min Rain = 0
KVP1 110311Z 14007KT 22/17 A3015 RMK A01 T02220166  RH  070%=      5-min Rain = 0
KVP1 110312Z 15008KT 22/17 A3015 RMK A01 T02220166  RH  071%=      5-min Rain = 0
KVP1 110313Z 15007KT 22/17 A3015 RMK A01 T02220166  RH  071%=      5-min Rain = 0
KVP1 110314Z 15007KT 22/17 A3015 RMK A01 T02210166  RH  071%=      5-min Rain = 0
KVP1 110315Z 15007KT 22/17 A3015 RMK A01 T02210167  RH  071%=      5-min Rain = 0
KVP1 110316Z 15007KT 22/17 A3015 RMK A01 T02200167  RH  072%=      5-min Rain = 0
KVP1 110317Z 15007KT 22/17 A3015 RMK A01 T02200166  RH  072%=      5-min Rain = 0
KVP1 110318Z 15008KT 22/17 A3015 RMK A01 T02200166  RH  072%=      5-min Rain = 0
KVP1 110319Z 16008KT 22/17 A3015 RMK A01 T02200166  RH  072%=      5-min Rain = 0
KVP1 110320Z 16008KT 22/17 A3015 RMK A01 T02200167  RH  072%=      5-min Rain = 0
KVP1 110321Z 16008KT 22/17 A3015 RMK A01 T02200166  RH  072%=      5-min Rain = 0
KVP1 110322Z 16008KT 22/17 A3015 RMK A01 T02200166  RH  071%=      5-min Rain = 0
KVP1 110323Z 16008KT 22/17 A3015 RMK A01 T02200166  RH  071%=      5-min Rain = 0
KVP1 110324Z 16008KT 22/17 A3015 RMK A01 T02210165  RH  071%=      5-min Rain = 0
KVP1 110325Z 16007KT 22/17 A3015 RMK A01 T02200165  RH  071%=      5-min Rain = 0
KVP1 110326Z 16007KT 22/17 A3015 RMK A01 T02210165  RH  070%=      5-min Rain = 0
KVP1 110327Z 16007KT 22/17 A3015 RMK A01 T02210165  RH  070%=      5-min Rain = 0
KVP1 110328Z 16008KT 22/16 A3015 RMK A01 T02210164  RH  070%=      5-min Rain = 0
KVP1 110329Z 16007KT 22/16 A3016 RMK A01 T02210164  RH  070%=      5-min Rain = 0
KVP1 110330Z 16007KT 22/16 A3016 RMK A01 T02210164  RH  070%=      5-min Rain = 0
KVP1 110331Z 16007KT 22/16 A3016 RMK A01 T02210164  RH  070%=      5-min Rain = 0
KVP1 110332Z 16007KT 22/16 A3016 RMK A01 T02210164  RH  070%=      5-min Rain = 0
KVP1 110333Z 15007KT 22/16 A3016 RMK A01 T02210164  RH  070%=      5-min Rain = 0
KVP1 110334Z 15008KT 22/16 A3016 RMK A01 T02210163  RH  070%=      5-min Rain = 0
KVP1 110335Z 15007KT 22/16 A3016 RMK A01 T02210163  RH  069%=      5-min Rain = 0
KVP1 110336Z 16007KT 22/16 A3016 RMK A01 T02220163  RH  069%=      5-min Rain = 0
KVP1 110337Z 16007KT 22/16 A3016 RMK A01 T02220163  RH  069%=      5-min Rain = 0
KVP1 110338Z 16008KT 22/16 A3016 RMK A01 T02220163  RH  069%=      5-min Rain = 0
KVP1 110339Z 15008KT 22/16 A3016 RMK A01 T02220163  RH  069%=      5-min Rain = 0
KVP1 110340Z 15008KT 22/16 A3016 RMK A01 T02220163  RH  069%=      5-min Rain = 0
KVP1 110341Z 15008KT 22/16 A3016 RMK A01 T02220162  RH  069%=      5-min Rain = 0
KVP1 110342Z 15008KT 22/16 A3016 RMK A01 T02220162  RH  069%=      5-min Rain = 0
KVP1 110343Z 15008KT 22/16 A3016 RMK A01 T02220162  RH  069%=      5-min Rain = 0
KVP1 110344Z 15008KT 22/16 A3016 RMK A01 T02220162  RH  069%=      5-min Rain = 0
KVP1 110345Z 15008KT 22/16 A3016 RMK A01 T02220162  RH  069%=      5-min Rain = 0
KVP1 110346Z 15007KT 22/16 A3016 RMK A01 T02220162  RH  069%=      5-min Rain = 0
KVP1 110347Z 15007KT 22/16 A3016 RMK A01 T02220162  RH  069%=      5-min Rain = 0
KVP1 110348Z 15007KT 22/16 A3016 RMK A01 T02220162  RH  069%=      5-min Rain = 0
KVP1 110349Z 15006KT 22/16 A3016 RMK A01 T02220162  RH  069%=      5-min Rain = 0
KVP1 110350Z 15006KT 22/16 A3016 RMK A01 T02210162  RH  069%=      5-min Rain = 0
KVP1 110351Z 15006KT 22/16 A3016 RMK A01 T02210162  RH  069%=      5-min Rain = 0
KVP1 110352Z 15007KT 22/16 A3017 RMK A01 T02200162  RH  069%=      5-min Rain = 0
KVP1 110353Z 15007KT 22/16 A3017 RMK A01 T02190162  RH  070%=      5-min Rain = 0
KVP1 110354Z 15007KT 22/16 A3017 RMK A01 T02180161  RH  070%=      5-min Rain = 0
KVP1 110355Z 15007KT 22/16 A3017 RMK A01 T02180161  RH  070%=      5-min Rain = 0
KVP1 110356Z 15007KT 22/16 A3017 RMK A01 T02180162  RH  070%=      5-min Rain = 0
KVP1 110357Z 15007KT 22/16 A3017 RMK A01 T02180161  RH  070%=      5-min Rain = 0
KVP1 110358Z 15007KT 22/16 A3017 RMK A01 T02180161  RH  070%=      5-min Rain = 0
KVP1 110359Z 15007KT 22/16 A3017 RMK A01 T02180161  RH  070%=      5-min Rain = 0
KVP1 110400Z 15006KT 22/16 A3017 RMK A01 T02180161  RH  070%=      5-min Rain = 0
KVP1 110401Z 15006KT 22/16 A3017 RMK A01 T02180161  RH  070%=      5-min Rain = 0
KVP1 110402Z 15006KT 22/16 A3017 RMK A01 T02180161  RH  070%=      5-min Rain = 0
KVP1 110403Z 15007KT 22/16 A3017 RMK A01 T02170161  RH  070%=      5-min Rain = 0
KVP1 110404Z 15006KT 22/16 A3017 RMK A01 T02170161  RH  070%=      5-min Rain = 0
KVP1 110405Z 16007KT 22/16 A3017 RMK A01 T02170161  RH  071%=      5-min Rain = 0
KVP1 110406Z 16006KT 22/16 A3017 RMK A01 T02170161  RH  071%=      5-min Rain = 0
KVP1 110407Z 16006KT 22/16 A3017 RMK A01 T02170162  RH  071%=      5-min Rain = 0
KVP1 110408Z 16006KT 22/16 A3017 RMK A01 T02160162  RH  071%=      5-min Rain = 0
KVP1 110409Z 16007KT 22/16 A3017 RMK A01 T02160161  RH  071%=      5-min Rain = 0
KVP1 110410Z 16007KT 22/16 A3017 RMK A01 T02160162  RH  071%=      5-min Rain = 0
KVP1 110411Z 16007KT 22/16 A3017 RMK A01 T02170162  RH  071%=      5-min Rain = 0
KVP1 110412Z 16007KT 22/16 A3017 RMK A01 T02170162  RH  071%=      5-min Rain = 0
KVP1 110413Z 16008KT 22/16 A3017 RMK A01 T02180162  RH  071%=      5-min Rain = 0
KVP1 110414Z 16008KT 22/16 A3017 RMK A01 T02180163  RH  071%=      5-min Rain = 0
KVP1 110415Z 16008KT 22/16 A3017 RMK A01 T02180163  RH  071%=      5-min Rain = 0
KVP1 110416Z 16008KT 22/16 A3017 RMK A01 T02190163  RH  070%=      5-min Rain = 0
KVP1 110417Z 16008KT 22/16 A3017 RMK A01 T02200163  RH  070%=      5-min Rain = 0
KVP1 110418Z 16008KT 22/16 A3016 RMK A01 T02200163  RH  070%=      5-min Rain = 0
KVP1 110419Z 16007KT 22/16 A3016 RMK A01 T02200163  RH  070%=      5-min Rain = 0
KVP1 110420Z 16008KT 22/16 A3016 RMK A01 T02210163  RH  070%=      5-min Rain = 0
KVP1 110421Z 16008KT 22/16 A3016 RMK A01 T02210163  RH  070%=      5-min Rain = 0
KVP1 110422Z 16008KT 22/16 A3016 RMK A01 T02210163  RH  070%=      5-min Rain = 0
KVP1 110423Z 16008KT 22/16 A3016 RMK A01 T02210163  RH  070%=      5-min Rain = 0
KVP1 110424Z 16008KT 22/16 A3016 RMK A01 T02210163  RH  070%=      5-min Rain = 0
KVP1 110425Z 16008KT 22/16 A3016 RMK A01 T02210163  RH  070%=      5-min Rain = 0
KVP1 110426Z 16008KT 22/16 A3016 RMK A01 T02220164  RH  070%=      5-min Rain = 0
KVP1 110427Z 16008KT 22/16 A3016 RMK A01 T02220164  RH  070%=      5-min Rain = 0
KVP1 110428Z 16009KT 22/16 A3016 RMK A01 T02220164  RH  070%=      5-min Rain = 0
KVP1 110429Z 16009KT 22/16 A3016 RMK A01 T02220164  RH  069%=      5-min Rain = 0
KVP1 110430Z 16008KT 22/16 A3016 RMK A01 T02220164  RH  069%=      5-min Rain = 0
KVP1 110431Z 17008KT 22/16 A3016 RMK A01 T02230164  RH  069%=      5-min Rain = 0
KVP1 110432Z 16008KT 22/16 A3016 RMK A01 T02230164  RH  069%=      5-min Rain = 0
KVP1 110433Z 16008KT 22/16 A3016 RMK A01 T02230164  RH  069%=      5-min Rain = 0
KVP1 110434Z 17008KT 22/16 A3016 RMK A01 T02230164  RH  069%=      5-min Rain = 0
KVP1 110435Z 16008KT 22/16 A3016 RMK A01 T02230163  RH  069%=      5-min Rain = 0
KVP1 110436Z 16008KT 22/16 A3016 RMK A01 T02230164  RH  069%=      5-min Rain = 0
KVP1 110437Z 16008KT 22/16 A3016 RMK A01 T02230164  RH  069%=      5-min Rain = 0
KVP1 110438Z 16008KT 22/16 A3016 RMK A01 T02230164  RH  069%=      5-min Rain = 0
KVP1 110439Z 16008KT 22/16 A3016 RMK A01 T02240164  RH  069%=      5-min Rain = 0
KVP1 110440Z 16008KT 22/17 A3016 RMK A01 T02240165  RH  069%=      5-min Rain = 0
KVP1 110441Z 16007KT 22/17 A3016 RMK A01 T02240165  RH  069%=      5-min Rain = 0
KVP1 110442Z 16007KT 22/17 A3016 RMK A01 T02240165  RH  069%=      5-min Rain = 0
KVP1 110443Z 16007KT 22/17 A3016 RMK A01 T02240165  RH  069%=      5-min Rain = 0
KVP1 110444Z 15007KT 22/17 A3016 RMK A01 T02240165  RH  069%=      5-min Rain = 0
KVP1 110445Z 15007KT 22/17 A3016 RMK A01 T02230165  RH  069%=      5-min Rain = 0
KVP1 110446Z 15008KT 22/17 A3016 RMK A01 T02230165  RH  070%=      5-min Rain = 0
KVP1 110447Z 15008KT 22/17 A3016 RMK A01 T02220165  RH  070%=      5-min Rain = 0
KVP1 110448Z 15008KT 22/17 A3016 RMK A01 T02220165  RH  070%=      5-min Rain = 0
KVP1 110449Z 15008KT 22/17 A3016 RMK A01 T02220165  RH  070%=      5-min Rain = 0
KVP1 110450Z 15007KT 22/17 A3016 RMK A01 T02210165  RH  070%=      5-min Rain = 0
KVP1 110451Z 15007KT 22/17 A3016 RMK A01 T02200165  RH  071%=      5-min Rain = 0
KVP1 110452Z 15007KT 22/16 A3016 RMK A01 T02200164  RH  071%=      5-min Rain = 0
KVP1 110453Z 15008KT 22/16 A3016 RMK A01 T02190164  RH  071%=      5-min Rain = 0
KVP1 110454Z 15007KT 22/17 A3016 RMK A01 T02180165  RH  071%=      5-min Rain = 0
KVP1 110455Z 15007KT 22/17 A3016 RMK A01 T02180165  RH  072%=      5-min Rain = 0
KVP1 110456Z 15007KT 22/16 A3016 RMK A01 T02170164  RH  072%=      5-min Rain = 0
KVP1 110457Z 15007KT 22/17 A3016 RMK A01 T02170165  RH  072%=      5-min Rain = 0
KVP1 110458Z 15007KT 22/17 A3016 RMK A01 T02170165  RH  072%=      5-min Rain = 0
KVP1 110459Z 15008KT 22/17 A3016 RMK A01 T02170165  RH  073%=      5-min Rain = 0

Page generated in 0.0697 seconds.